<?xml version="1.0" encoding="UTF-8" standalone="no" ?>
<gpx xmlns="http://www.topografix.com/GPX/1/1" xmlns:xsi="http://www.w3.org/2001/XMLSchema-instance" xsi:schemaLocation="http://www.topografix.com/GPX/1/1 http://www.topografix.com/GPX/1/1/gpx.xsd" version="1.1" creator="VisuGPX - https://www.visugpx.com">
  <metadata>
    <name>Le Désert en Valjoufrey</name>
  </metadata>
  <trk>
    <name><![CDATA[Le Désert en Valjoufrey_1]]></name>
    <extensions>
      <line xmlns="http://www.topografix.com/GPX/gpx_style/0/2">
        <color>0000FF</color>
        <opacity>1</opacity>
        <width>4</width>
      </line>
    </extensions>
    <trkseg>
      <trkpt lat="44.88157" lon="6.0166">
        <ele>974.8</ele>
        <time>2026-08-07T13:13:41.000Z</time>
        <extensions>
          <visugpx:TrkExtension xmlns:visugpx="https://www.visugpx.com/editgpx/">
            <visugpx:node>2</visugpx:node>
            </visugpx:TrkExtension>
        </extensions>
      </trkpt>
      <trkpt lat="44.88154" lon="6.01675">
        <ele>976</ele>
        <time>2026-08-07T13:13:49.298Z</time>
      </trkpt>
      <trkpt lat="44.8815" lon="6.01676">
        <ele>975.7</ele>
        <time>2026-08-07T13:13:49.791Z</time>
      </trkpt>
      <trkpt lat="44.88138" lon="6.01686">
        <ele>975.3</ele>
        <time>2026-08-07T13:13:51.990Z</time>
      </trkpt>
      <trkpt lat="44.88121" lon="6.01667">
        <ele>972.1</ele>
        <time>2026-08-07T13:13:54.621Z</time>
      </trkpt>
      <trkpt lat="44.88114" lon="6.01661">
        <ele>971.1</ele>
        <time>2026-08-07T13:13:55.615Z</time>
      </trkpt>
      <trkpt lat="44.88108" lon="6.0167">
        <ele>971</ele>
        <time>2026-08-07T13:13:57.210Z</time>
      </trkpt>
      <trkpt lat="44.88103" lon="6.01678">
        <ele>971</ele>
        <time>2026-08-07T13:13:58.739Z</time>
      </trkpt>
      <trkpt lat="44.88092" lon="6.01693">
        <ele>970.6</ele>
        <time>2026-08-07T13:14:01.201Z</time>
      </trkpt>
      <trkpt lat="44.88078" lon="6.01718">
        <ele>970.3</ele>
        <time>2026-08-07T13:14:05.247Z</time>
      </trkpt>
      <trkpt lat="44.88073" lon="6.01728">
        <ele>970.1</ele>
        <time>2026-08-07T13:14:06.678Z</time>
      </trkpt>
      <trkpt lat="44.88066" lon="6.01742">
        <ele>969.8</ele>
        <time>2026-08-07T13:14:08.655Z</time>
      </trkpt>
      <trkpt lat="44.88055" lon="6.01761">
        <ele>969.4</ele>
        <time>2026-08-07T13:14:11.526Z</time>
      </trkpt>
      <trkpt lat="44.88046" lon="6.01779">
        <ele>968.7</ele>
        <time>2026-08-07T13:14:13.710Z</time>
      </trkpt>
      <trkpt lat="44.88016" lon="6.01833">
        <ele>970.8</ele>
        <time>2026-08-07T13:14:29.461Z</time>
      </trkpt>
      <trkpt lat="44.87999" lon="6.01861">
        <ele>970.8</ele>
        <time>2026-08-07T13:14:34.746Z</time>
      </trkpt>
      <trkpt lat="44.87958" lon="6.01923">
        <ele>970.7</ele>
        <time>2026-08-07T13:14:46.710Z</time>
      </trkpt>
      <trkpt lat="44.87941" lon="6.0195">
        <ele>971.4</ele>
        <time>2026-08-07T13:14:53.587Z</time>
      </trkpt>
      <trkpt lat="44.87925" lon="6.01978">
        <ele>972.1</ele>
        <time>2026-08-07T13:15:00.444Z</time>
      </trkpt>
      <trkpt lat="44.87912" lon="6.02002">
        <ele>973.6</ele>
        <time>2026-08-07T13:15:10.292Z</time>
      </trkpt>
      <trkpt lat="44.87892" lon="6.02032">
        <ele>974.9</ele>
        <time>2026-08-07T13:15:19.907Z</time>
      </trkpt>
      <trkpt lat="44.87871" lon="6.02064">
        <ele>975.6</ele>
        <time>2026-08-07T13:15:27.788Z</time>
      </trkpt>
      <trkpt lat="44.87856" lon="6.02086">
        <ele>976.2</ele>
        <time>2026-08-07T13:15:33.626Z</time>
      </trkpt>
      <trkpt lat="44.87845" lon="6.02117">
        <ele>978.7</ele>
        <time>2026-08-07T13:15:50.753Z</time>
      </trkpt>
      <trkpt lat="44.87827" lon="6.02152">
        <ele>979.6</ele>
        <time>2026-08-07T13:15:59.178Z</time>
      </trkpt>
      <trkpt lat="44.87807" lon="6.02206">
        <ele>981.2</ele>
        <time>2026-08-07T13:16:12.163Z</time>
      </trkpt>
      <trkpt lat="44.87796" lon="6.02242">
        <ele>982.5</ele>
        <time>2026-08-07T13:16:21.576Z</time>
      </trkpt>
      <trkpt lat="44.87792" lon="6.02266">
        <ele>984.4</ele>
        <time>2026-08-07T13:16:34.716Z</time>
      </trkpt>
      <trkpt lat="44.8779" lon="6.02297">
        <ele>987.6</ele>
        <time>2026-08-07T13:16:53.836Z</time>
      </trkpt>
      <trkpt lat="44.87787" lon="6.02314">
        <ele>989</ele>
        <time>2026-08-07T13:17:03.536Z</time>
      </trkpt>
      <trkpt lat="44.87761" lon="6.02405">
        <ele>992.7</ele>
        <time>2026-08-07T13:17:29.100Z</time>
      </trkpt>
      <trkpt lat="44.87754" lon="6.0242">
        <ele>992.6</ele>
        <time>2026-08-07T13:17:31.493Z</time>
      </trkpt>
      <trkpt lat="44.87753" lon="6.02423">
        <ele>992.6</ele>
        <time>2026-08-07T13:17:31.968Z</time>
      </trkpt>
      <trkpt lat="44.87731" lon="6.02466">
        <ele>993</ele>
        <time>2026-08-07T13:17:40.409Z</time>
      </trkpt>
      <trkpt lat="44.87708" lon="6.02507">
        <ele>995.2</ele>
        <time>2026-08-07T13:17:55.175Z</time>
      </trkpt>
      <trkpt lat="44.87698" lon="6.02526">
        <ele>997.3</ele>
        <time>2026-08-07T13:18:09.423Z</time>
      </trkpt>
      <trkpt lat="44.87695" lon="6.02531">
        <ele>997.8</ele>
        <time>2026-08-07T13:18:12.878Z</time>
      </trkpt>
      <trkpt lat="44.87686" lon="6.02542">
        <ele>999.1</ele>
        <time>2026-08-07T13:18:21.872Z</time>
      </trkpt>
      <trkpt lat="44.87681" lon="6.02547">
        <ele>999.4</ele>
        <time>2026-08-07T13:18:24.005Z</time>
      </trkpt>
      <trkpt lat="44.87658" lon="6.02558">
        <ele>998</ele>
        <time>2026-08-07T13:18:27.123Z</time>
      </trkpt>
      <trkpt lat="44.87643" lon="6.02563">
        <ele>996.6</ele>
        <time>2026-08-07T13:18:28.993Z</time>
      </trkpt>
      <trkpt lat="44.87632" lon="6.02569">
        <ele>996.4</ele>
        <time>2026-08-07T13:18:31.041Z</time>
      </trkpt>
      <trkpt lat="44.87623" lon="6.02578">
        <ele>997.5</ele>
        <time>2026-08-07T13:18:38.549Z</time>
      </trkpt>
      <trkpt lat="44.87615" lon="6.02594">
        <ele>1000.1</ele>
        <time>2026-08-07T13:18:50.577Z</time>
      </trkpt>
      <trkpt lat="44.87608" lon="6.02604">
        <ele>1001.5</ele>
        <time>2026-08-07T13:18:59.211Z</time>
      </trkpt>
      <trkpt lat="44.87601" lon="6.02611">
        <ele>1002.9</ele>
        <time>2026-08-07T13:19:06.648Z</time>
      </trkpt>
      <trkpt lat="44.87595" lon="6.02611">
        <ele>1003</ele>
        <time>2026-08-07T13:19:08.082Z</time>
      </trkpt>
      <trkpt lat="44.87586" lon="6.02611">
        <ele>1003</ele>
        <time>2026-08-07T13:19:09.902Z</time>
      </trkpt>
      <trkpt lat="44.87565" lon="6.0261">
        <ele>1003.3</ele>
        <time>2026-08-07T13:19:14.801Z</time>
      </trkpt>
      <trkpt lat="44.87555" lon="6.02612">
        <ele>1004.2</ele>
        <time>2026-08-07T13:19:20.813Z</time>
      </trkpt>
      <trkpt lat="44.87547" lon="6.0262">
        <ele>1004.3</ele>
        <time>2026-08-07T13:19:23.005Z</time>
      </trkpt>
      <trkpt lat="44.8754" lon="6.02632">
        <ele>1005</ele>
        <time>2026-08-07T13:19:27.646Z</time>
      </trkpt>
      <trkpt lat="44.87531" lon="6.02656">
        <ele>1007</ele>
        <time>2026-08-07T13:19:41.397Z</time>
      </trkpt>
      <trkpt lat="44.87526" lon="6.02667">
        <ele>1007.5</ele>
        <time>2026-08-07T13:19:44.836Z</time>
      </trkpt>
      <trkpt lat="44.8752" lon="6.02676">
        <ele>1007.7</ele>
        <time>2026-08-07T13:19:47.074Z</time>
      </trkpt>
      <trkpt lat="44.87514" lon="6.02683">
        <ele>1007.9</ele>
        <time>2026-08-07T13:19:49.127Z</time>
      </trkpt>
      <trkpt lat="44.87493" lon="6.02711">
        <ele>1009.8</ele>
        <time>2026-08-07T13:20:01.666Z</time>
      </trkpt>
      <trkpt lat="44.87463" lon="6.02759">
        <ele>1013.3</ele>
        <time>2026-08-07T13:20:24.650Z</time>
      </trkpt>
      <trkpt lat="44.87445" lon="6.02784">
        <ele>1012.9</ele>
        <time>2026-08-07T13:20:29.078Z</time>
      </trkpt>
      <trkpt lat="44.87437" lon="6.02796">
        <ele>1015</ele>
        <time>2026-08-07T13:20:39.198Z</time>
      </trkpt>
      <trkpt lat="44.87432" lon="6.02799">
        <ele>1014.9</ele>
        <time>2026-08-07T13:20:40.130Z</time>
      </trkpt>
      <trkpt lat="44.87425" lon="6.02799">
        <ele>1013.7</ele>
        <time>2026-08-07T13:20:40.979Z</time>
      </trkpt>
      <trkpt lat="44.87402" lon="6.02781">
        <ele>1012.9</ele>
        <time>2026-08-07T13:20:45.073Z</time>
      </trkpt>
      <trkpt lat="44.87399" lon="6.02773">
        <ele>1013.4</ele>
        <time>2026-08-07T13:20:48.358Z</time>
      </trkpt>
      <trkpt lat="44.87397" lon="6.02753">
        <ele>1013</ele>
        <time>2026-08-07T13:20:50.630Z</time>
      </trkpt>
      <trkpt lat="44.87393" lon="6.02719">
        <ele>1012.4</ele>
        <time>2026-08-07T13:20:54.611Z</time>
      </trkpt>
      <trkpt lat="44.87386" lon="6.02703">
        <ele>1012.1</ele>
        <time>2026-08-07T13:20:56.820Z</time>
      </trkpt>
      <trkpt lat="44.87377" lon="6.02694">
        <ele>1012.8</ele>
        <time>2026-08-07T13:21:01.462Z</time>
      </trkpt>
      <trkpt lat="44.87368" lon="6.02693">
        <ele>1014.7</ele>
        <time>2026-08-07T13:21:09.287Z</time>
      </trkpt>
      <trkpt lat="44.87349" lon="6.02691">
        <ele>1017.3</ele>
        <time>2026-08-07T13:21:25.802Z</time>
      </trkpt>
      <trkpt lat="44.87334" lon="6.02686">
        <ele>1017.5</ele>
        <time>2026-08-07T13:21:29.347Z</time>
      </trkpt>
      <trkpt lat="44.87312" lon="6.02675">
        <ele>1015.2</ele>
        <time>2026-08-07T13:21:32.180Z</time>
      </trkpt>
      <trkpt lat="44.87303" lon="6.02671">
        <ele>1014.6</ele>
        <time>2026-08-07T13:21:33.347Z</time>
      </trkpt>
      <trkpt lat="44.87296" lon="6.02672">
        <ele>1014.1</ele>
        <time>2026-08-07T13:21:34.201Z</time>
      </trkpt>
      <trkpt lat="44.8729" lon="6.02672">
        <ele>1013.7</ele>
        <time>2026-08-07T13:21:34.929Z</time>
      </trkpt>
      <trkpt lat="44.87285" lon="6.02675">
        <ele>1013.8</ele>
        <time>2026-08-07T13:21:36.252Z</time>
      </trkpt>
      <trkpt lat="44.87282" lon="6.02681">
        <ele>1014.4</ele>
        <time>2026-08-07T13:21:40.406Z</time>
      </trkpt>
      <trkpt lat="44.87279" lon="6.02695">
        <ele>1016.2</ele>
        <time>2026-08-07T13:21:49.391Z</time>
      </trkpt>
      <trkpt lat="44.87276" lon="6.02706">
        <ele>1016.6</ele>
        <time>2026-08-07T13:21:52.260Z</time>
      </trkpt>
      <trkpt lat="44.87273" lon="6.02718">
        <ele>1016.9</ele>
        <time>2026-08-07T13:21:54.853Z</time>
      </trkpt>
      <trkpt lat="44.87271" lon="6.02725">
        <ele>1017</ele>
        <time>2026-08-07T13:21:56.160Z</time>
      </trkpt>
      <trkpt lat="44.87268" lon="6.02736">
        <ele>1017.3</ele>
        <time>2026-08-07T13:21:58.638Z</time>
      </trkpt>
      <trkpt lat="44.87264" lon="6.02746">
        <ele>1017.6</ele>
        <time>2026-08-07T13:22:01.080Z</time>
      </trkpt>
      <trkpt lat="44.87259" lon="6.02753">
        <ele>1017.6</ele>
        <time>2026-08-07T13:22:02.505Z</time>
      </trkpt>
      <trkpt lat="44.87253" lon="6.02759">
        <ele>1017.7</ele>
        <time>2026-08-07T13:22:04.207Z</time>
      </trkpt>
      <trkpt lat="44.87246" lon="6.02764">
        <ele>1017.8</ele>
        <time>2026-08-07T13:22:06.008Z</time>
      </trkpt>
      <trkpt lat="44.87236" lon="6.02768">
        <ele>1017.7</ele>
        <time>2026-08-07T13:22:07.932Z</time>
      </trkpt>
      <trkpt lat="44.87231" lon="6.02769">
        <ele>1017.6</ele>
        <time>2026-08-07T13:22:08.788Z</time>
      </trkpt>
      <trkpt lat="44.87228" lon="6.02769">
        <ele>1017.5</ele>
        <time>2026-08-07T13:22:09.244Z</time>
      </trkpt>
      <trkpt lat="44.87223" lon="6.0277">
        <ele>1017.2</ele>
        <time>2026-08-07T13:22:09.885Z</time>
      </trkpt>
      <trkpt lat="44.87214" lon="6.02773">
        <ele>1017</ele>
        <time>2026-08-07T13:22:11.429Z</time>
      </trkpt>
      <trkpt lat="44.87202" lon="6.02776">
        <ele>1016.4</ele>
        <time>2026-08-07T13:22:13.084Z</time>
      </trkpt>
      <trkpt lat="44.87196" lon="6.02781">
        <ele>1016.4</ele>
        <time>2026-08-07T13:22:14.493Z</time>
      </trkpt>
      <trkpt lat="44.87191" lon="6.02785">
        <ele>1016.7</ele>
        <time>2026-08-07T13:22:16.579Z</time>
      </trkpt>
      <trkpt lat="44.87185" lon="6.02794">
        <ele>1017.1</ele>
        <time>2026-08-07T13:22:19.504Z</time>
      </trkpt>
      <trkpt lat="44.87184" lon="6.02799">
        <ele>1017.4</ele>
        <time>2026-08-07T13:22:21.483Z</time>
      </trkpt>
      <trkpt lat="44.87181" lon="6.02806">
        <ele>1017.6</ele>
        <time>2026-08-07T13:22:23.174Z</time>
      </trkpt>
      <trkpt lat="44.8718" lon="6.02813">
        <ele>1017.8</ele>
        <time>2026-08-07T13:22:24.742Z</time>
      </trkpt>
      <trkpt lat="44.87178" lon="6.02819">
        <ele>1018</ele>
        <time>2026-08-07T13:22:26.253Z</time>
      </trkpt>
      <trkpt lat="44.87177" lon="6.02842">
        <ele>1019.2</ele>
        <time>2026-08-07T13:22:34.122Z</time>
      </trkpt>
      <trkpt lat="44.87177" lon="6.0285">
        <ele>1019.5</ele>
        <time>2026-08-07T13:22:36.199Z</time>
      </trkpt>
      <trkpt lat="44.87176" lon="6.02864">
        <ele>1020.2</ele>
        <time>2026-08-07T13:22:40.794Z</time>
      </trkpt>
      <trkpt lat="44.87173" lon="6.02894">
        <ele>1021.7</ele>
        <time>2026-08-07T13:22:50.644Z</time>
      </trkpt>
      <trkpt lat="44.87172" lon="6.02912">
        <ele>1022.2</ele>
        <time>2026-08-07T13:22:54.587Z</time>
      </trkpt>
      <trkpt lat="44.87164" lon="6.03001">
        <ele>1025</ele>
        <time>2026-08-07T13:23:15.401Z</time>
      </trkpt>
      <trkpt lat="44.87164" lon="6.03012">
        <ele>1025.7</ele>
        <time>2026-08-07T13:23:20.083Z</time>
      </trkpt>
      <trkpt lat="44.87159" lon="6.0306">
        <ele>1027.2</ele>
        <time>2026-08-07T13:23:31.282Z</time>
      </trkpt>
      <trkpt lat="44.87153" lon="6.03094">
        <ele>1026.5</ele>
        <time>2026-08-07T13:23:35.214Z</time>
      </trkpt>
      <trkpt lat="44.87152" lon="6.03127">
        <ele>1026.7</ele>
        <time>2026-08-07T13:23:40.361Z</time>
      </trkpt>
      <trkpt lat="44.87151" lon="6.03132">
        <ele>1026.7</ele>
        <time>2026-08-07T13:23:41.106Z</time>
      </trkpt>
      <trkpt lat="44.87148" lon="6.03146">
        <ele>1026.7</ele>
        <time>2026-08-07T13:23:43.202Z</time>
      </trkpt>
      <trkpt lat="44.87145" lon="6.0315">
        <ele>1026.5</ele>
        <time>2026-08-07T13:23:43.765Z</time>
      </trkpt>
      <trkpt lat="44.87142" lon="6.03172">
        <ele>1026.2</ele>
        <time>2026-08-07T13:23:46.478Z</time>
      </trkpt>
      <trkpt lat="44.87138" lon="6.03227">
        <ele>1027.1</ele>
        <time>2026-08-07T13:23:56.504Z</time>
      </trkpt>
      <trkpt lat="44.87137" lon="6.03243">
        <ele>1027.6</ele>
        <time>2026-08-07T13:24:00.225Z</time>
      </trkpt>
      <trkpt lat="44.87135" lon="6.03252">
        <ele>1027.8</ele>
        <time>2026-08-07T13:24:02.075Z</time>
        <extensions>
          <visugpx:TrkExtension xmlns:visugpx="https://www.visugpx.com/editgpx/">
            <visugpx:node>3</visugpx:node>
            </visugpx:TrkExtension>
        </extensions>
      </trkpt>
      <trkpt lat="44.87133" lon="6.03265">
        <ele>1028.1</ele>
        <time>2026-08-07T13:24:04.741Z</time>
      </trkpt>
      <trkpt lat="44.87127" lon="6.0329">
        <ele>1028.2</ele>
        <time>2026-08-07T13:24:08.725Z</time>
      </trkpt>
      <trkpt lat="44.87125" lon="6.03301">
        <ele>1028</ele>
        <time>2026-08-07T13:24:10.034Z</time>
      </trkpt>
      <trkpt lat="44.87113" lon="6.03363">
        <ele>1027.4</ele>
        <time>2026-08-07T13:24:18.205Z</time>
      </trkpt>
      <trkpt lat="44.87105" lon="6.03395">
        <ele>1030.1</ele>
        <time>2026-08-07T13:24:36.911Z</time>
      </trkpt>
      <trkpt lat="44.87099" lon="6.03411">
        <ele>1031.6</ele>
        <time>2026-08-07T13:24:47.284Z</time>
      </trkpt>
      <trkpt lat="44.87093" lon="6.03423">
        <ele>1032.4</ele>
        <time>2026-08-07T13:24:52.536Z</time>
      </trkpt>
      <trkpt lat="44.87083" lon="6.03435">
        <ele>1032.6</ele>
        <time>2026-08-07T13:24:55.628Z</time>
      </trkpt>
      <trkpt lat="44.87068" lon="6.03452">
        <ele>1033.6</ele>
        <time>2026-08-07T13:25:02.590Z</time>
      </trkpt>
      <trkpt lat="44.8705" lon="6.03468">
        <ele>1032.9</ele>
        <time>2026-08-07T13:25:05.838Z</time>
      </trkpt>
      <trkpt lat="44.87031" lon="6.03481">
        <ele>1032.6</ele>
        <time>2026-08-07T13:25:09.592Z</time>
      </trkpt>
      <trkpt lat="44.87009" lon="6.03492">
        <ele>1032</ele>
        <time>2026-08-07T13:25:13.362Z</time>
      </trkpt>
      <trkpt lat="44.8696" lon="6.03502">
        <ele>1031.2</ele>
        <time>2026-08-07T13:25:22.018Z</time>
      </trkpt>
      <trkpt lat="44.86925" lon="6.03509">
        <ele>1030.7</ele>
        <time>2026-08-07T13:25:28.305Z</time>
      </trkpt>
      <trkpt lat="44.86914" lon="6.03514">
        <ele>1030.3</ele>
        <time>2026-08-07T13:25:30.047Z</time>
      </trkpt>
      <trkpt lat="44.86901" lon="6.03526">
        <ele>1030.3</ele>
        <time>2026-08-07T13:25:33.189Z</time>
      </trkpt>
      <trkpt lat="44.86891" lon="6.03542">
        <ele>1030.7</ele>
        <time>2026-08-07T13:25:37.211Z</time>
      </trkpt>
      <trkpt lat="44.8688" lon="6.03577">
        <ele>1031.6</ele>
        <time>2026-08-07T13:25:45.005Z</time>
      </trkpt>
      <trkpt lat="44.86864" lon="6.03632">
        <ele>1033.4</ele>
        <time>2026-08-07T13:25:58.577Z</time>
      </trkpt>
      <trkpt lat="44.86862" lon="6.03638">
        <ele>1033.2</ele>
        <time>2026-08-07T13:25:59.245Z</time>
      </trkpt>
      <trkpt lat="44.8686" lon="6.03645">
        <ele>1033.5</ele>
        <time>2026-08-07T13:26:01.287Z</time>
      </trkpt>
      <trkpt lat="44.86857" lon="6.03657">
        <ele>1034.3</ele>
        <time>2026-08-07T13:26:06.626Z</time>
      </trkpt>
      <trkpt lat="44.86856" lon="6.03659">
        <ele>1034.4</ele>
        <time>2026-08-07T13:26:07.302Z</time>
      </trkpt>
      <trkpt lat="44.86845" lon="6.03695">
        <ele>1035.6</ele>
        <time>2026-08-07T13:26:16.303Z</time>
      </trkpt>
      <trkpt lat="44.86828" lon="6.03725">
        <ele>1035.4</ele>
        <time>2026-08-07T13:26:21.446Z</time>
      </trkpt>
      <trkpt lat="44.86751" lon="6.03838">
        <ele>1036.2</ele>
        <time>2026-08-07T13:26:45.547Z</time>
      </trkpt>
      <trkpt lat="44.86739" lon="6.03858">
        <ele>1037.4</ele>
        <time>2026-08-07T13:26:53.484Z</time>
      </trkpt>
      <trkpt lat="44.8673" lon="6.03878">
        <ele>1037.1</ele>
        <time>2026-08-07T13:26:56.377Z</time>
      </trkpt>
      <trkpt lat="44.86718" lon="6.03912">
        <ele>1038.5</ele>
        <time>2026-08-07T13:27:06.121Z</time>
      </trkpt>
      <trkpt lat="44.86711" lon="6.03929">
        <ele>1039.9</ele>
        <time>2026-08-07T13:27:15.691Z</time>
      </trkpt>
      <trkpt lat="44.86702" lon="6.03945">
        <ele>1039.5</ele>
        <time>2026-08-07T13:27:17.994Z</time>
      </trkpt>
      <trkpt lat="44.8669" lon="6.03961">
        <ele>1039.8</ele>
        <time>2026-08-07T13:27:22.005Z</time>
      </trkpt>
      <trkpt lat="44.86636" lon="6.04018">
        <ele>1038.6</ele>
        <time>2026-08-07T13:27:33.632Z</time>
      </trkpt>
      <trkpt lat="44.86583" lon="6.04084">
        <ele>1038</ele>
        <time>2026-08-07T13:27:46.849Z</time>
      </trkpt>
      <trkpt lat="44.86569" lon="6.04104">
        <ele>1039</ele>
        <time>2026-08-07T13:27:53.896Z</time>
      </trkpt>
      <trkpt lat="44.86553" lon="6.04133">
        <ele>1039.4</ele>
        <time>2026-08-07T13:28:00.038Z</time>
      </trkpt>
      <trkpt lat="44.86525" lon="6.04188">
        <ele>1040.4</ele>
        <time>2026-08-07T13:28:12.037Z</time>
      </trkpt>
      <trkpt lat="44.86499" lon="6.04238">
        <ele>1040.1</ele>
        <time>2026-08-07T13:28:20.380Z</time>
      </trkpt>
      <trkpt lat="44.8649" lon="6.04254">
        <ele>1041.2</ele>
        <time>2026-08-07T13:28:27.599Z</time>
      </trkpt>
      <trkpt lat="44.86482" lon="6.04267">
        <ele>1042</ele>
        <time>2026-08-07T13:28:32.880Z</time>
      </trkpt>
      <trkpt lat="44.86466" lon="6.04281">
        <ele>1042.1</ele>
        <time>2026-08-07T13:28:36.889Z</time>
      </trkpt>
      <trkpt lat="44.86387" lon="6.04347">
        <ele>1043</ele>
        <time>2026-08-07T13:28:57.333Z</time>
      </trkpt>
      <trkpt lat="44.86376" lon="6.04356">
        <ele>1043</ele>
        <time>2026-08-07T13:28:59.905Z</time>
      </trkpt>
      <trkpt lat="44.86371" lon="6.0436">
        <ele>1043</ele>
        <time>2026-08-07T13:29:01.068Z</time>
      </trkpt>
      <trkpt lat="44.8636" lon="6.04374">
        <ele>1043.5</ele>
        <time>2026-08-07T13:29:05.352Z</time>
      </trkpt>
      <trkpt lat="44.86348" lon="6.04393">
        <ele>1044.2</ele>
        <time>2026-08-07T13:29:10.892Z</time>
      </trkpt>
      <trkpt lat="44.86315" lon="6.04454">
        <ele>1045.4</ele>
        <time>2026-08-07T13:29:24.673Z</time>
      </trkpt>
      <trkpt lat="44.86303" lon="6.04469">
        <ele>1045</ele>
        <time>2026-08-07T13:29:27.278Z</time>
      </trkpt>
      <trkpt lat="44.86281" lon="6.0449">
        <ele>1045.1</ele>
        <time>2026-08-07T13:29:32.849Z</time>
      </trkpt>
      <trkpt lat="44.86277" lon="6.04494">
        <ele>1045</ele>
        <time>2026-08-07T13:29:33.676Z</time>
      </trkpt>
      <trkpt lat="44.86237" lon="6.04532">
        <ele>1047.5</ele>
        <time>2026-08-07T13:29:51.096Z</time>
      </trkpt>
      <trkpt lat="44.8622" lon="6.04548">
        <ele>1048</ele>
        <time>2026-08-07T13:29:56.412Z</time>
      </trkpt>
      <trkpt lat="44.86199" lon="6.04568">
        <ele>1048</ele>
        <time>2026-08-07T13:30:01.537Z</time>
      </trkpt>
      <trkpt lat="44.86196" lon="6.04571">
        <ele>1048</ele>
        <time>2026-08-07T13:30:02.280Z</time>
      </trkpt>
      <trkpt lat="44.86151" lon="6.04616">
        <ele>1050.3</ele>
        <time>2026-08-07T13:30:19.825Z</time>
      </trkpt>
      <trkpt lat="44.86111" lon="6.04676">
        <ele>1054</ele>
        <time>2026-08-07T13:30:44.363Z</time>
      </trkpt>
      <trkpt lat="44.86101" lon="6.0469">
        <ele>1054.4</ele>
        <time>2026-08-07T13:30:48.194Z</time>
      </trkpt>
      <trkpt lat="44.86053" lon="6.04765">
        <ele>1053.7</ele>
        <time>2026-08-07T13:31:01.433Z</time>
      </trkpt>
      <trkpt lat="44.86038" lon="6.04789">
        <ele>1054.4</ele>
        <time>2026-08-07T13:31:07.776Z</time>
      </trkpt>
      <trkpt lat="44.86032" lon="6.048">
        <ele>1054.8</ele>
        <time>2026-08-07T13:31:10.866Z</time>
      </trkpt>
      <trkpt lat="44.86028" lon="6.04807">
        <ele>1055</ele>
        <time>2026-08-07T13:31:12.659Z</time>
      </trkpt>
      <trkpt lat="44.86019" lon="6.04828">
        <ele>1056</ele>
        <time>2026-08-07T13:31:19.421Z</time>
      </trkpt>
      <trkpt lat="44.86014" lon="6.04839">
        <ele>1056.4</ele>
        <time>2026-08-07T13:31:22.421Z</time>
      </trkpt>
      <trkpt lat="44.86012" lon="6.04854">
        <ele>1056.7</ele>
        <time>2026-08-07T13:31:25.341Z</time>
      </trkpt>
      <trkpt lat="44.8601" lon="6.04867">
        <ele>1056.9</ele>
        <time>2026-08-07T13:31:27.708Z</time>
      </trkpt>
      <trkpt lat="44.86025" lon="6.05175">
        <ele>1061</ele>
        <time>2026-08-07T13:32:21.192Z</time>
      </trkpt>
      <trkpt lat="44.86025" lon="6.05179">
        <ele>1061</ele>
        <time>2026-08-07T13:32:21.765Z</time>
      </trkpt>
      <trkpt lat="44.86026" lon="6.05198">
        <ele>1061.1</ele>
        <time>2026-08-07T13:32:24.701Z</time>
      </trkpt>
      <trkpt lat="44.86026" lon="6.05201">
        <ele>1061.2</ele>
        <time>2026-08-07T13:32:25.423Z</time>
      </trkpt>
      <trkpt lat="44.86027" lon="6.05245">
        <ele>1062.8</ele>
        <time>2026-08-07T13:32:36.614Z</time>
      </trkpt>
      <trkpt lat="44.86026" lon="6.0527">
        <ele>1063</ele>
        <time>2026-08-07T13:32:40.625Z</time>
      </trkpt>
      <trkpt lat="44.86025" lon="6.05292">
        <ele>1063.1</ele>
        <time>2026-08-07T13:32:43.988Z</time>
      </trkpt>
      <trkpt lat="44.86015" lon="6.0537">
        <ele>1065</ele>
        <time>2026-08-07T13:33:00.251Z</time>
      </trkpt>
      <trkpt lat="44.8601" lon="6.05427">
        <ele>1066.1</ele>
        <time>2026-08-07T13:33:11.149Z</time>
      </trkpt>
      <trkpt lat="44.86006" lon="6.05475">
        <ele>1067.1</ele>
        <time>2026-08-07T13:33:20.548Z</time>
      </trkpt>
      <trkpt lat="44.86006" lon="6.05548">
        <ele>1068.8</ele>
        <time>2026-08-07T13:33:35.357Z</time>
      </trkpt>
      <trkpt lat="44.86009" lon="6.05647">
        <ele>1070.1</ele>
        <time>2026-08-07T13:33:52.482Z</time>
      </trkpt>
      <trkpt lat="44.86009" lon="6.05689">
        <ele>1070.3</ele>
        <time>2026-08-07T13:33:58.909Z</time>
      </trkpt>
      <trkpt lat="44.86007" lon="6.05712">
        <ele>1070.9</ele>
        <time>2026-08-07T13:34:03.818Z</time>
      </trkpt>
      <trkpt lat="44.86011" lon="6.05733">
        <ele>1071.6</ele>
        <time>2026-08-07T13:34:08.951Z</time>
      </trkpt>
      <trkpt lat="44.86019" lon="6.0579">
        <ele>1073.1</ele>
        <time>2026-08-07T13:34:21.244Z</time>
      </trkpt>
      <trkpt lat="44.86035" lon="6.05905">
        <ele>1075.8</ele>
        <time>2026-08-07T13:34:44.922Z</time>
      </trkpt>
      <trkpt lat="44.86048" lon="6.05994">
        <ele>1077.9</ele>
        <time>2026-08-07T13:35:03.302Z</time>
      </trkpt>
      <trkpt lat="44.86059" lon="6.06081">
        <ele>1080.4</ele>
        <time>2026-08-07T13:35:22.798Z</time>
      </trkpt>
      <trkpt lat="44.86069" lon="6.06144">
        <ele>1083</ele>
        <time>2026-08-07T13:35:40.431Z</time>
      </trkpt>
      <trkpt lat="44.86074" lon="6.06185">
        <ele>1084.9</ele>
        <time>2026-08-07T13:35:53.002Z</time>
      </trkpt>
      <trkpt lat="44.86076" lon="6.06211">
        <ele>1086.5</ele>
        <time>2026-08-07T13:36:03.633Z</time>
      </trkpt>
      <trkpt lat="44.86075" lon="6.06231">
        <ele>1087.4</ele>
        <time>2026-08-07T13:36:09.603Z</time>
      </trkpt>
      <trkpt lat="44.86073" lon="6.06268">
        <ele>1089</ele>
        <time>2026-08-07T13:36:20.289Z</time>
      </trkpt>
      <trkpt lat="44.86071" lon="6.06332">
        <ele>1091.2</ele>
        <time>2026-08-07T13:36:35.998Z</time>
      </trkpt>
      <trkpt lat="44.86069" lon="6.0639">
        <ele>1094</ele>
        <time>2026-08-07T13:36:54.416Z</time>
      </trkpt>
      <trkpt lat="44.86067" lon="6.06414">
        <ele>1093.7</ele>
        <time>2026-08-07T13:36:57.376Z</time>
      </trkpt>
      <trkpt lat="44.86065" lon="6.06429">
        <ele>1093.6</ele>
        <time>2026-08-07T13:36:59.385Z</time>
      </trkpt>
      <trkpt lat="44.86061" lon="6.06449">
        <ele>1093.6</ele>
        <time>2026-08-07T13:37:02.364Z</time>
      </trkpt>
      <trkpt lat="44.86053" lon="6.06483">
        <ele>1093.2</ele>
        <time>2026-08-07T13:37:06.819Z</time>
      </trkpt>
      <trkpt lat="44.86043" lon="6.06517">
        <ele>1093.1</ele>
        <time>2026-08-07T13:37:11.910Z</time>
      </trkpt>
      <trkpt lat="44.8603" lon="6.06571">
        <ele>1093.8</ele>
        <time>2026-08-07T13:37:21.641Z</time>
      </trkpt>
      <trkpt lat="44.86019" lon="6.06611">
        <ele>1095.1</ele>
        <time>2026-08-07T13:37:31.440Z</time>
      </trkpt>
      <trkpt lat="44.86013" lon="6.06653">
        <ele>1097.9</ele>
        <time>2026-08-07T13:37:50.260Z</time>
      </trkpt>
      <trkpt lat="44.86024" lon="6.0673">
        <ele>1104.6</ele>
        <time>2026-08-07T13:38:36.354Z</time>
      </trkpt>
      <trkpt lat="44.86037" lon="6.06812">
        <ele>1105.6</ele>
        <time>2026-08-07T13:38:50.612Z</time>
      </trkpt>
      <trkpt lat="44.86063" lon="6.06941">
        <ele>1112.5</ele>
        <time>2026-08-07T13:39:35.866Z</time>
      </trkpt>
      <trkpt lat="44.86078" lon="6.07007">
        <ele>1114.6</ele>
        <time>2026-08-07T13:39:51.695Z</time>
      </trkpt>
      <trkpt lat="44.86085" lon="6.07028">
        <ele>1115.7</ele>
        <time>2026-08-07T13:39:58.942Z</time>
      </trkpt>
      <trkpt lat="44.86101" lon="6.07061">
        <ele>1118.2</ele>
        <time>2026-08-07T13:40:15.612Z</time>
      </trkpt>
      <trkpt lat="44.86123" lon="6.07096">
        <ele>1122.3</ele>
        <time>2026-08-07T13:40:43.580Z</time>
      </trkpt>
      <trkpt lat="44.86133" lon="6.07119">
        <ele>1123.2</ele>
        <time>2026-08-07T13:40:50.081Z</time>
      </trkpt>
      <trkpt lat="44.86151" lon="6.07171">
        <ele>1126.3</ele>
        <time>2026-08-07T13:41:10.421Z</time>
      </trkpt>
      <trkpt lat="44.86183" lon="6.0726">
        <ele>1131.9</ele>
        <time>2026-08-07T13:41:47.257Z</time>
      </trkpt>
      <trkpt lat="44.8621" lon="6.07332">
        <ele>1134.2</ele>
        <time>2026-08-07T13:42:05.210Z</time>
      </trkpt>
      <trkpt lat="44.86214" lon="6.07347">
        <ele>1134.8</ele>
        <time>2026-08-07T13:42:09.366Z</time>
      </trkpt>
      <trkpt lat="44.86217" lon="6.07378">
        <ele>1134.2</ele>
        <time>2026-08-07T13:42:12.910Z</time>
      </trkpt>
      <trkpt lat="44.86216" lon="6.07414">
        <ele>1134.9</ele>
        <time>2026-08-07T13:42:19.776Z</time>
      </trkpt>
      <trkpt lat="44.86217" lon="6.07446">
        <ele>1136.2</ele>
        <time>2026-08-07T13:42:28.575Z</time>
      </trkpt>
      <trkpt lat="44.86222" lon="6.07467">
        <ele>1136.3</ele>
        <time>2026-08-07T13:42:31.953Z</time>
      </trkpt>
      <trkpt lat="44.86227" lon="6.0748">
        <ele>1136.7</ele>
        <time>2026-08-07T13:42:35.148Z</time>
      </trkpt>
      <trkpt lat="44.86234" lon="6.07494">
        <ele>1138</ele>
        <time>2026-08-07T13:42:44.124Z</time>
      </trkpt>
      <trkpt lat="44.86265" lon="6.0754">
        <ele>1141.9</ele>
        <time>2026-08-07T13:43:10.056Z</time>
      </trkpt>
      <trkpt lat="44.86277" lon="6.07558">
        <ele>1143.5</ele>
        <time>2026-08-07T13:43:20.791Z</time>
      </trkpt>
      <trkpt lat="44.86291" lon="6.07585">
        <ele>1145.5</ele>
        <time>2026-08-07T13:43:34.037Z</time>
      </trkpt>
      <trkpt lat="44.86302" lon="6.07611">
        <ele>1146</ele>
        <time>2026-08-07T13:43:39.548Z</time>
      </trkpt>
      <trkpt lat="44.86318" lon="6.07655">
        <ele>1145</ele>
        <time>2026-08-07T13:43:45.085Z</time>
      </trkpt>
      <trkpt lat="44.86331" lon="6.07696">
        <ele>1144.6</ele>
        <time>2026-08-07T13:43:50.826Z</time>
      </trkpt>
      <trkpt lat="44.86342" lon="6.0772">
        <ele>1145.6</ele>
        <time>2026-08-07T13:43:57.916Z</time>
      </trkpt>
      <trkpt lat="44.8635" lon="6.07732">
        <ele>1147.1</ele>
        <time>2026-08-07T13:44:07.952Z</time>
      </trkpt>
      <trkpt lat="44.8636" lon="6.07741">
        <ele>1148.2</ele>
        <time>2026-08-07T13:44:15.354Z</time>
      </trkpt>
      <trkpt lat="44.86375" lon="6.07747">
        <ele>1150.1</ele>
        <time>2026-08-07T13:44:28.380Z</time>
      </trkpt>
      <trkpt lat="44.86391" lon="6.07747">
        <ele>1152.6</ele>
        <time>2026-08-07T13:44:42.249Z</time>
      </trkpt>
      <trkpt lat="44.86417" lon="6.07747">
        <ele>1157.4</ele>
        <time>2026-08-07T13:45:04.786Z</time>
      </trkpt>
      <trkpt lat="44.8643" lon="6.07749">
        <ele>1159.8</ele>
        <time>2026-08-07T13:45:16.121Z</time>
      </trkpt>
      <trkpt lat="44.8644" lon="6.07757">
        <ele>1161.6</ele>
        <time>2026-08-07T13:45:26.085Z</time>
      </trkpt>
      <trkpt lat="44.86449" lon="6.07769">
        <ele>1163.1</ele>
        <time>2026-08-07T13:45:36.387Z</time>
      </trkpt>
      <trkpt lat="44.86454" lon="6.07777">
        <ele>1163.9</ele>
        <time>2026-08-07T13:45:41.902Z</time>
      </trkpt>
      <trkpt lat="44.8646" lon="6.07792">
        <ele>1164.7</ele>
        <time>2026-08-07T13:45:47.184Z</time>
      </trkpt>
      <trkpt lat="44.86489" lon="6.07882">
        <ele>1168</ele>
        <time>2026-08-07T13:46:11.015Z</time>
      </trkpt>
      <trkpt lat="44.86512" lon="6.0795">
        <ele>1170.2</ele>
        <time>2026-08-07T13:46:27.898Z</time>
      </trkpt>
      <trkpt lat="44.86515" lon="6.07965">
        <ele>1170.7</ele>
        <time>2026-08-07T13:46:31.569Z</time>
      </trkpt>
      <trkpt lat="44.86518" lon="6.07992">
        <ele>1171</ele>
        <time>2026-08-07T13:46:36.143Z</time>
      </trkpt>
      <trkpt lat="44.86521" lon="6.08029">
        <ele>1172.3</ele>
        <time>2026-08-07T13:46:45.368Z</time>
      </trkpt>
      <trkpt lat="44.86525" lon="6.08062">
        <ele>1174.3</ele>
        <time>2026-08-07T13:46:58.612Z</time>
      </trkpt>
      <trkpt lat="44.86533" lon="6.08093">
        <ele>1178.2</ele>
        <time>2026-08-07T13:47:18.880Z</time>
      </trkpt>
      <trkpt lat="44.86554" lon="6.0815">
        <ele>1185</ele>
        <time>2026-08-07T13:47:58.347Z</time>
      </trkpt>
      <trkpt lat="44.86569" lon="6.08193">
        <ele>1187.4</ele>
        <time>2026-08-07T13:48:14.098Z</time>
      </trkpt>
      <trkpt lat="44.86578" lon="6.08212">
        <ele>1188.4</ele>
        <time>2026-08-07T13:48:20.759Z</time>
      </trkpt>
      <trkpt lat="44.86587" lon="6.08227">
        <ele>1189.5</ele>
        <time>2026-08-07T13:48:27.993Z</time>
      </trkpt>
      <trkpt lat="44.86617" lon="6.08274">
        <ele>1192.3</ele>
        <time>2026-08-07T13:48:46.605Z</time>
      </trkpt>
      <trkpt lat="44.86639" lon="6.08311">
        <ele>1194.9</ele>
        <time>2026-08-07T13:49:03.667Z</time>
      </trkpt>
      <trkpt lat="44.86644" lon="6.08323">
        <ele>1196.1</ele>
        <time>2026-08-07T13:49:11.899Z</time>
      </trkpt>
      <trkpt lat="44.86649" lon="6.08338">
        <ele>1197.1</ele>
        <time>2026-08-07T13:49:18.530Z</time>
      </trkpt>
      <trkpt lat="44.86652" lon="6.08353">
        <ele>1197.6</ele>
        <time>2026-08-07T13:49:22.202Z</time>
      </trkpt>
      <trkpt lat="44.86655" lon="6.08375">
        <ele>1198.6</ele>
        <time>2026-08-07T13:49:28.840Z</time>
      </trkpt>
      <trkpt lat="44.86655" lon="6.08439">
        <ele>1201.1</ele>
        <time>2026-08-07T13:49:45.934Z</time>
      </trkpt>
      <trkpt lat="44.86652" lon="6.08565">
        <ele>1207.1</ele>
        <time>2026-08-07T13:50:25.445Z</time>
      </trkpt>
      <trkpt lat="44.86653" lon="6.08592">
        <ele>1207.4</ele>
        <time>2026-08-07T13:50:29.978Z</time>
      </trkpt>
      <trkpt lat="44.86654" lon="6.08615">
        <ele>1207.7</ele>
        <time>2026-08-07T13:50:33.954Z</time>
      </trkpt>
      <trkpt lat="44.86656" lon="6.08624">
        <ele>1208.4</ele>
        <time>2026-08-07T13:50:38.773Z</time>
      </trkpt>
      <trkpt lat="44.86661" lon="6.0863">
        <ele>1209.5</ele>
        <time>2026-08-07T13:50:44.462Z</time>
      </trkpt>
      <trkpt lat="44.86666" lon="6.08632">
        <ele>1210.9</ele>
        <time>2026-08-07T13:50:48.967Z</time>
      </trkpt>
      <trkpt lat="44.86671" lon="6.08631">
        <ele>1211.8</ele>
        <time>2026-08-07T13:50:53.344Z</time>
      </trkpt>
      <trkpt lat="44.86675" lon="6.08627">
        <ele>1212.6</ele>
        <time>2026-08-07T13:50:57.594Z</time>
      </trkpt>
      <trkpt lat="44.86684" lon="6.08614">
        <ele>1213.7</ele>
        <time>2026-08-07T13:51:04.892Z</time>
      </trkpt>
      <trkpt lat="44.86705" lon="6.08585">
        <ele>1214.6</ele>
        <time>2026-08-07T13:51:13.087Z</time>
      </trkpt>
      <trkpt lat="44.86725" lon="6.08558">
        <ele>1216.5</ele>
        <time>2026-08-07T13:51:25.577Z</time>
      </trkpt>
      <trkpt lat="44.86738" lon="6.08535">
        <ele>1217.5</ele>
        <time>2026-08-07T13:51:32.746Z</time>
      </trkpt>
      <trkpt lat="44.86746" lon="6.08519">
        <ele>1218.5</ele>
        <time>2026-08-07T13:51:39.305Z</time>
      </trkpt>
      <trkpt lat="44.8675" lon="6.08512">
        <ele>1219.1</ele>
        <time>2026-08-07T13:51:43.354Z</time>
      </trkpt>
      <trkpt lat="44.86756" lon="6.08509">
        <ele>1220.1</ele>
        <time>2026-08-07T13:51:48.872Z</time>
      </trkpt>
      <trkpt lat="44.8676" lon="6.08511">
        <ele>1221</ele>
        <time>2026-08-07T13:51:52.551Z</time>
      </trkpt>
      <trkpt lat="44.86765" lon="6.08515">
        <ele>1221.9</ele>
        <time>2026-08-07T13:51:57.533Z</time>
      </trkpt>
      <trkpt lat="44.86767" lon="6.08521">
        <ele>1222.3</ele>
        <time>2026-08-07T13:52:00.185Z</time>
      </trkpt>
      <trkpt lat="44.86768" lon="6.08534">
        <ele>1222.5</ele>
        <time>2026-08-07T13:52:02.521Z</time>
      </trkpt>
      <trkpt lat="44.8677" lon="6.08576">
        <ele>1224.3</ele>
        <time>2026-08-07T13:52:14.562Z</time>
      </trkpt>
      <trkpt lat="44.86775" lon="6.0866">
        <ele>1227.2</ele>
        <time>2026-08-07T13:52:35.254Z</time>
      </trkpt>
      <trkpt lat="44.86775" lon="6.08681">
        <ele>1228.2</ele>
        <time>2026-08-07T13:52:41.839Z</time>
      </trkpt>
      <trkpt lat="44.86773" lon="6.08703">
        <ele>1229.5</ele>
        <time>2026-08-07T13:52:50.427Z</time>
      </trkpt>
      <trkpt lat="44.86768" lon="6.08726">
        <ele>1231.2</ele>
        <time>2026-08-07T13:53:02.030Z</time>
      </trkpt>
      <trkpt lat="44.8676" lon="6.08752">
        <ele>1232.2</ele>
        <time>2026-08-07T13:53:09.097Z</time>
      </trkpt>
      <trkpt lat="44.86748" lon="6.08781">
        <ele>1231.3</ele>
        <time>2026-08-07T13:53:12.600Z</time>
      </trkpt>
      <trkpt lat="44.86747" lon="6.08789">
        <ele>1231</ele>
        <time>2026-08-07T13:53:13.367Z</time>
      </trkpt>
      <trkpt lat="44.86748" lon="6.08795">
        <ele>1231.4</ele>
        <time>2026-08-07T13:53:16.052Z</time>
      </trkpt>
      <trkpt lat="44.86752" lon="6.08799">
        <ele>1232.4</ele>
        <time>2026-08-07T13:53:20.301Z</time>
      </trkpt>
      <trkpt lat="44.86756" lon="6.088">
        <ele>1233.3</ele>
        <time>2026-08-07T13:53:23.823Z</time>
      </trkpt>
      <trkpt lat="44.86761" lon="6.08796">
        <ele>1234.2</ele>
        <time>2026-08-07T13:53:28.805Z</time>
      </trkpt>
      <trkpt lat="44.86767" lon="6.08789">
        <ele>1234.9</ele>
        <time>2026-08-07T13:53:33.488Z</time>
      </trkpt>
      <trkpt lat="44.86775" lon="6.08778">
        <ele>1235.7</ele>
        <time>2026-08-07T13:53:38.736Z</time>
      </trkpt>
      <trkpt lat="44.86782" lon="6.08773">
        <ele>1236.1</ele>
        <time>2026-08-07T13:53:41.539Z</time>
      </trkpt>
      <trkpt lat="44.86795" lon="6.0877">
        <ele>1237.3</ele>
        <time>2026-08-07T13:53:49.587Z</time>
      </trkpt>
      <trkpt lat="44.86812" lon="6.08772">
        <ele>1239.3</ele>
        <time>2026-08-07T13:54:03.412Z</time>
      </trkpt>
      <trkpt lat="44.8682" lon="6.08772">
        <ele>1240.2</ele>
        <time>2026-08-07T13:54:09.648Z</time>
      </trkpt>
      <trkpt lat="44.86824" lon="6.08772">
        <ele>1240.6</ele>
        <time>2026-08-07T13:54:12.380Z</time>
      </trkpt>
      <trkpt lat="44.86835" lon="6.0877">
        <ele>1241.6</ele>
        <time>2026-08-07T13:54:19.073Z</time>
      </trkpt>
      <trkpt lat="44.86843" lon="6.08764">
        <ele>1242.3</ele>
        <time>2026-08-07T13:54:23.671Z</time>
      </trkpt>
      <trkpt lat="44.86851" lon="6.08753">
        <ele>1242.8</ele>
        <time>2026-08-07T13:54:27.360Z</time>
      </trkpt>
      <trkpt lat="44.86854" lon="6.08744">
        <ele>1242.8</ele>
        <time>2026-08-07T13:54:28.786Z</time>
      </trkpt>
      <trkpt lat="44.86859" lon="6.08725">
        <ele>1242.8</ele>
        <time>2026-08-07T13:54:31.691Z</time>
      </trkpt>
      <trkpt lat="44.86864" lon="6.08714">
        <ele>1243.2</ele>
        <time>2026-08-07T13:54:34.692Z</time>
      </trkpt>
      <trkpt lat="44.8687" lon="6.08708">
        <ele>1244.1</ele>
        <time>2026-08-07T13:54:40.853Z</time>
      </trkpt>
      <trkpt lat="44.86877" lon="6.08707">
        <ele>1245.2</ele>
        <time>2026-08-07T13:54:46.952Z</time>
      </trkpt>
      <trkpt lat="44.86883" lon="6.08708">
        <ele>1246.4</ele>
        <time>2026-08-07T13:54:52.189Z</time>
      </trkpt>
      <trkpt lat="44.86885" lon="6.0871">
        <ele>1246.9</ele>
        <time>2026-08-07T13:54:54.314Z</time>
      </trkpt>
      <trkpt lat="44.86889" lon="6.08713">
        <ele>1247.6</ele>
        <time>2026-08-07T13:54:58.240Z</time>
      </trkpt>
      <trkpt lat="44.86892" lon="6.08722">
        <ele>1248.7</ele>
        <time>2026-08-07T13:55:04.350Z</time>
      </trkpt>
      <trkpt lat="44.86893" lon="6.08728">
        <ele>1249.1</ele>
        <time>2026-08-07T13:55:07.035Z</time>
      </trkpt>
      <trkpt lat="44.8689" lon="6.08746">
        <ele>1249</ele>
        <time>2026-08-07T13:55:09.505Z</time>
      </trkpt>
      <trkpt lat="44.86885" lon="6.08771">
        <ele>1249.8</ele>
        <time>2026-08-07T13:55:15.488Z</time>
      </trkpt>
      <trkpt lat="44.86884" lon="6.08795">
        <ele>1250.9</ele>
        <time>2026-08-07T13:55:22.764Z</time>
      </trkpt>
      <trkpt lat="44.86884" lon="6.08808">
        <ele>1251.8</ele>
        <time>2026-08-07T13:55:28.883Z</time>
      </trkpt>
      <trkpt lat="44.86884" lon="6.08837">
        <ele>1254.8</ele>
        <time>2026-08-07T13:55:46.698Z</time>
      </trkpt>
      <trkpt lat="44.86882" lon="6.08857">
        <ele>1256</ele>
        <time>2026-08-07T13:55:54.639Z</time>
      </trkpt>
      <trkpt lat="44.86881" lon="6.08863">
        <ele>1256.3</ele>
        <time>2026-08-07T13:55:56.611Z</time>
      </trkpt>
      <trkpt lat="44.86877" lon="6.08881">
        <ele>1257.5</ele>
        <time>2026-08-07T13:56:04.637Z</time>
      </trkpt>
      <trkpt lat="44.86868" lon="6.08907">
        <ele>1258.3</ele>
        <time>2026-08-07T13:56:10.950Z</time>
      </trkpt>
      <trkpt lat="44.86867" lon="6.08917">
        <ele>1258.9</ele>
        <time>2026-08-07T13:56:14.921Z</time>
      </trkpt>
      <trkpt lat="44.86868" lon="6.08935">
        <ele>1260.4</ele>
        <time>2026-08-07T13:56:25.290Z</time>
      </trkpt>
      <trkpt lat="44.86868" lon="6.08956">
        <ele>1262</ele>
        <time>2026-08-07T13:56:36.342Z</time>
      </trkpt>
      <trkpt lat="44.86862" lon="6.09009">
        <ele>1263.4</ele>
        <time>2026-08-07T13:56:47.748Z</time>
      </trkpt>
      <trkpt lat="44.86863" lon="6.09018">
        <ele>1264</ele>
        <time>2026-08-07T13:56:51.787Z</time>
      </trkpt>
      <trkpt lat="44.86866" lon="6.09028">
        <ele>1265</ele>
        <time>2026-08-07T13:56:58.426Z</time>
      </trkpt>
      <trkpt lat="44.86868" lon="6.09033">
        <ele>1265.6</ele>
        <time>2026-08-07T13:57:01.953Z</time>
      </trkpt>
      <trkpt lat="44.86874" lon="6.09043">
        <ele>1267.5</ele>
        <time>2026-08-07T13:57:10.002Z</time>
      </trkpt>
      <trkpt lat="44.86873" lon="6.09047">
        <ele>1267.5</ele>
        <time>2026-08-07T13:57:10.610Z</time>
      </trkpt>
      <trkpt lat="44.8687" lon="6.09064">
        <ele>1267.4</ele>
        <time>2026-08-07T13:57:12.941Z</time>
        <extensions>
          <visugpx:TrkExtension xmlns:visugpx="https://www.visugpx.com/editgpx/">
            <visugpx:node>1</visugpx:node>
            </visugpx:TrkExtension>
        </extensions>
      </trkpt>
      <trkpt lat="44.86873" lon="6.09047">
        <ele>1267.5</ele>
        <time>2026-08-07T13:57:15.657Z</time>
      </trkpt>
      <trkpt lat="44.86874" lon="6.09043">
        <ele>1267.5</ele>
        <time>2026-08-07T13:57:16.265Z</time>
      </trkpt>
      <trkpt lat="44.86868" lon="6.09033">
        <ele>1265.6</ele>
        <time>2026-08-07T13:57:17.392Z</time>
      </trkpt>
      <trkpt lat="44.86866" lon="6.09028">
        <ele>1265</ele>
        <time>2026-08-07T13:57:17.886Z</time>
      </trkpt>
      <trkpt lat="44.86863" lon="6.09018">
        <ele>1264</ele>
        <time>2026-08-07T13:57:18.820Z</time>
      </trkpt>
      <trkpt lat="44.86862" lon="6.09009">
        <ele>1263.4</ele>
        <time>2026-08-07T13:57:19.603Z</time>
      </trkpt>
      <trkpt lat="44.86868" lon="6.08956">
        <ele>1262</ele>
        <time>2026-08-07T13:57:25.244Z</time>
      </trkpt>
      <trkpt lat="44.86868" lon="6.08935">
        <ele>1260.4</ele>
        <time>2026-08-07T13:57:27.050Z</time>
      </trkpt>
      <trkpt lat="44.86867" lon="6.08917">
        <ele>1258.9</ele>
        <time>2026-08-07T13:57:28.603Z</time>
      </trkpt>
      <trkpt lat="44.86868" lon="6.08907">
        <ele>1258.3</ele>
        <time>2026-08-07T13:57:29.471Z</time>
      </trkpt>
      <trkpt lat="44.86877" lon="6.08881">
        <ele>1257.5</ele>
        <time>2026-08-07T13:57:32.463Z</time>
      </trkpt>
      <trkpt lat="44.86881" lon="6.08863">
        <ele>1256.3</ele>
        <time>2026-08-07T13:57:34.085Z</time>
      </trkpt>
      <trkpt lat="44.86882" lon="6.08857">
        <ele>1256</ele>
        <time>2026-08-07T13:57:34.615Z</time>
      </trkpt>
      <trkpt lat="44.86884" lon="6.08837">
        <ele>1254.8</ele>
        <time>2026-08-07T13:57:36.353Z</time>
      </trkpt>
      <trkpt lat="44.86884" lon="6.08808">
        <ele>1251.8</ele>
        <time>2026-08-07T13:57:38.847Z</time>
      </trkpt>
      <trkpt lat="44.86884" lon="6.08795">
        <ele>1250.9</ele>
        <time>2026-08-07T13:57:39.965Z</time>
      </trkpt>
      <trkpt lat="44.86885" lon="6.08771">
        <ele>1249.8</ele>
        <time>2026-08-07T13:57:42.060Z</time>
      </trkpt>
      <trkpt lat="44.8689" lon="6.08746">
        <ele>1249</ele>
        <time>2026-08-07T13:57:44.661Z</time>
      </trkpt>
      <trkpt lat="44.86893" lon="6.08728">
        <ele>1249.1</ele>
        <time>2026-08-07T13:57:47.516Z</time>
      </trkpt>
      <trkpt lat="44.86892" lon="6.08722">
        <ele>1248.7</ele>
        <time>2026-08-07T13:57:48.046Z</time>
      </trkpt>
      <trkpt lat="44.86889" lon="6.08713">
        <ele>1247.6</ele>
        <time>2026-08-07T13:57:48.901Z</time>
      </trkpt>
      <trkpt lat="44.86885" lon="6.0871">
        <ele>1246.9</ele>
        <time>2026-08-07T13:57:49.451Z</time>
      </trkpt>
      <trkpt lat="44.86883" lon="6.08708">
        <ele>1246.4</ele>
        <time>2026-08-07T13:57:49.749Z</time>
      </trkpt>
      <trkpt lat="44.86877" lon="6.08707">
        <ele>1245.2</ele>
        <time>2026-08-07T13:57:50.482Z</time>
      </trkpt>
      <trkpt lat="44.8687" lon="6.08708">
        <ele>1244.1</ele>
        <time>2026-08-07T13:57:51.336Z</time>
      </trkpt>
      <trkpt lat="44.86864" lon="6.08714">
        <ele>1243.2</ele>
        <time>2026-08-07T13:57:52.228Z</time>
      </trkpt>
      <trkpt lat="44.86859" lon="6.08725">
        <ele>1242.8</ele>
        <time>2026-08-07T13:57:53.539Z</time>
      </trkpt>
      <trkpt lat="44.86854" lon="6.08744">
        <ele>1242.8</ele>
        <time>2026-08-07T13:57:56.444Z</time>
      </trkpt>
      <trkpt lat="44.86851" lon="6.08753">
        <ele>1242.8</ele>
        <time>2026-08-07T13:57:57.870Z</time>
      </trkpt>
      <trkpt lat="44.86843" lon="6.08764">
        <ele>1242.3</ele>
        <time>2026-08-07T13:57:59.434Z</time>
      </trkpt>
      <trkpt lat="44.86835" lon="6.0877">
        <ele>1241.6</ele>
        <time>2026-08-07T13:58:00.533Z</time>
      </trkpt>
      <trkpt lat="44.86824" lon="6.08772">
        <ele>1240.6</ele>
        <time>2026-08-07T13:58:01.879Z</time>
      </trkpt>
      <trkpt lat="44.8682" lon="6.08772">
        <ele>1240.2</ele>
        <time>2026-08-07T13:58:02.364Z</time>
      </trkpt>
      <trkpt lat="44.86812" lon="6.08772">
        <ele>1239.3</ele>
        <time>2026-08-07T13:58:03.335Z</time>
      </trkpt>
      <trkpt lat="44.86795" lon="6.0877">
        <ele>1237.3</ele>
        <time>2026-08-07T13:58:05.405Z</time>
      </trkpt>
      <trkpt lat="44.86782" lon="6.08773">
        <ele>1236.1</ele>
        <time>2026-08-07T13:58:07.004Z</time>
      </trkpt>
      <trkpt lat="44.86775" lon="6.08778">
        <ele>1235.7</ele>
        <time>2026-08-07T13:58:08.056Z</time>
      </trkpt>
      <trkpt lat="44.86767" lon="6.08789">
        <ele>1234.9</ele>
        <time>2026-08-07T13:58:09.412Z</time>
      </trkpt>
      <trkpt lat="44.86761" lon="6.08796">
        <ele>1234.2</ele>
        <time>2026-08-07T13:58:10.357Z</time>
      </trkpt>
      <trkpt lat="44.86756" lon="6.088">
        <ele>1233.3</ele>
        <time>2026-08-07T13:58:11.054Z</time>
      </trkpt>
      <trkpt lat="44.86752" lon="6.08799">
        <ele>1232.4</ele>
        <time>2026-08-07T13:58:11.547Z</time>
      </trkpt>
      <trkpt lat="44.86748" lon="6.08795">
        <ele>1231.4</ele>
        <time>2026-08-07T13:58:12.142Z</time>
      </trkpt>
      <trkpt lat="44.86747" lon="6.08789">
        <ele>1231</ele>
        <time>2026-08-07T13:58:12.672Z</time>
      </trkpt>
      <trkpt lat="44.86748" lon="6.08781">
        <ele>1231.3</ele>
        <time>2026-08-07T13:58:14.759Z</time>
      </trkpt>
      <trkpt lat="44.8676" lon="6.08752">
        <ele>1232.2</ele>
        <time>2026-08-07T13:58:21.982Z</time>
      </trkpt>
      <trkpt lat="44.86768" lon="6.08726">
        <ele>1231.2</ele>
        <time>2026-08-07T13:58:24.698Z</time>
      </trkpt>
      <trkpt lat="44.86773" lon="6.08703">
        <ele>1229.5</ele>
        <time>2026-08-07T13:58:26.767Z</time>
      </trkpt>
      <trkpt lat="44.86775" lon="6.08681">
        <ele>1228.2</ele>
        <time>2026-08-07T13:58:28.675Z</time>
      </trkpt>
      <trkpt lat="44.86775" lon="6.0866">
        <ele>1227.2</ele>
        <time>2026-08-07T13:58:30.481Z</time>
      </trkpt>
      <trkpt lat="44.8677" lon="6.08576">
        <ele>1224.3</ele>
        <time>2026-08-07T13:58:38.628Z</time>
      </trkpt>
      <trkpt lat="44.86768" lon="6.08534">
        <ele>1222.5</ele>
        <time>2026-08-07T13:58:42.394Z</time>
      </trkpt>
      <trkpt lat="44.86767" lon="6.08521">
        <ele>1222.3</ele>
        <time>2026-08-07T13:58:43.942Z</time>
      </trkpt>
      <trkpt lat="44.86765" lon="6.08515">
        <ele>1221.9</ele>
        <time>2026-08-07T13:58:44.512Z</time>
      </trkpt>
      <trkpt lat="44.8676" lon="6.08511">
        <ele>1221</ele>
        <time>2026-08-07T13:58:45.210Z</time>
      </trkpt>
      <trkpt lat="44.86756" lon="6.08509">
        <ele>1220.1</ele>
        <time>2026-08-07T13:58:45.725Z</time>
      </trkpt>
      <trkpt lat="44.8675" lon="6.08512">
        <ele>1219.1</ele>
        <time>2026-08-07T13:58:46.497Z</time>
      </trkpt>
      <trkpt lat="44.86746" lon="6.08519">
        <ele>1218.5</ele>
        <time>2026-08-07T13:58:47.270Z</time>
      </trkpt>
      <trkpt lat="44.86738" lon="6.08535">
        <ele>1217.5</ele>
        <time>2026-08-07T13:58:48.954Z</time>
      </trkpt>
      <trkpt lat="44.86725" lon="6.08558">
        <ele>1216.5</ele>
        <time>2026-08-07T13:58:51.809Z</time>
      </trkpt>
      <trkpt lat="44.86705" lon="6.08585">
        <ele>1214.6</ele>
        <time>2026-08-07T13:58:55.168Z</time>
      </trkpt>
      <trkpt lat="44.86684" lon="6.08614">
        <ele>1213.7</ele>
        <time>2026-08-07T13:58:59.734Z</time>
      </trkpt>
      <trkpt lat="44.86675" lon="6.08627">
        <ele>1212.6</ele>
        <time>2026-08-07T13:59:01.297Z</time>
      </trkpt>
      <trkpt lat="44.86671" lon="6.08631">
        <ele>1211.8</ele>
        <time>2026-08-07T13:59:01.892Z</time>
      </trkpt>
      <trkpt lat="44.86666" lon="6.08632">
        <ele>1210.9</ele>
        <time>2026-08-07T13:59:02.505Z</time>
      </trkpt>
      <trkpt lat="44.86661" lon="6.0863">
        <ele>1209.5</ele>
        <time>2026-08-07T13:59:03.136Z</time>
      </trkpt>
      <trkpt lat="44.86656" lon="6.08624">
        <ele>1208.4</ele>
        <time>2026-08-07T13:59:03.932Z</time>
      </trkpt>
      <trkpt lat="44.86654" lon="6.08615">
        <ele>1207.7</ele>
        <time>2026-08-07T13:59:04.743Z</time>
      </trkpt>
      <trkpt lat="44.86653" lon="6.08592">
        <ele>1207.4</ele>
        <time>2026-08-07T13:59:07.546Z</time>
      </trkpt>
      <trkpt lat="44.86652" lon="6.08565">
        <ele>1207.1</ele>
        <time>2026-08-07T13:59:10.910Z</time>
      </trkpt>
      <trkpt lat="44.86655" lon="6.08439">
        <ele>1201.1</ele>
        <time>2026-08-07T13:59:21.753Z</time>
      </trkpt>
      <trkpt lat="44.86655" lon="6.08375">
        <ele>1198.6</ele>
        <time>2026-08-07T13:59:27.673Z</time>
      </trkpt>
      <trkpt lat="44.86652" lon="6.08353">
        <ele>1197.6</ele>
        <time>2026-08-07T13:59:29.644Z</time>
      </trkpt>
      <trkpt lat="44.86649" lon="6.08338">
        <ele>1197.1</ele>
        <time>2026-08-07T13:59:31.185Z</time>
      </trkpt>
      <trkpt lat="44.86644" lon="6.08323">
        <ele>1196.1</ele>
        <time>2026-08-07T13:59:32.611Z</time>
      </trkpt>
      <trkpt lat="44.86639" lon="6.08311">
        <ele>1194.9</ele>
        <time>2026-08-07T13:59:33.808Z</time>
      </trkpt>
      <trkpt lat="44.86617" lon="6.08274">
        <ele>1192.3</ele>
        <time>2026-08-07T13:59:37.962Z</time>
      </trkpt>
      <trkpt lat="44.86587" lon="6.08227">
        <ele>1189.5</ele>
        <time>2026-08-07T13:59:43.545Z</time>
      </trkpt>
      <trkpt lat="44.86578" lon="6.08212">
        <ele>1188.4</ele>
        <time>2026-08-07T13:59:45.235Z</time>
      </trkpt>
      <trkpt lat="44.86569" lon="6.08193">
        <ele>1187.4</ele>
        <time>2026-08-07T13:59:47.262Z</time>
      </trkpt>
      <trkpt lat="44.86554" lon="6.0815">
        <ele>1185</ele>
        <time>2026-08-07T13:59:51.384Z</time>
      </trkpt>
      <trkpt lat="44.86533" lon="6.08093">
        <ele>1178.2</ele>
        <time>2026-08-07T13:59:56.909Z</time>
      </trkpt>
      <trkpt lat="44.86525" lon="6.08062">
        <ele>1174.3</ele>
        <time>2026-08-07T13:59:59.747Z</time>
      </trkpt>
      <trkpt lat="44.86521" lon="6.08029">
        <ele>1172.3</ele>
        <time>2026-08-07T14:00:02.626Z</time>
      </trkpt>
      <trkpt lat="44.86518" lon="6.07992">
        <ele>1171</ele>
        <time>2026-08-07T14:00:06.208Z</time>
      </trkpt>
      <trkpt lat="44.86515" lon="6.07965">
        <ele>1170.7</ele>
        <time>2026-08-07T14:00:09.614Z</time>
      </trkpt>
      <trkpt lat="44.86512" lon="6.0795">
        <ele>1170.2</ele>
        <time>2026-08-07T14:00:11.155Z</time>
      </trkpt>
      <trkpt lat="44.86489" lon="6.07882">
        <ele>1168</ele>
        <time>2026-08-07T14:00:18.823Z</time>
      </trkpt>
      <trkpt lat="44.8646" lon="6.07792">
        <ele>1164.7</ele>
        <time>2026-08-07T14:00:28.475Z</time>
      </trkpt>
      <trkpt lat="44.86454" lon="6.07777">
        <ele>1163.9</ele>
        <time>2026-08-07T14:00:29.967Z</time>
      </trkpt>
      <trkpt lat="44.86449" lon="6.07769">
        <ele>1163.1</ele>
        <time>2026-08-07T14:00:30.884Z</time>
      </trkpt>
      <trkpt lat="44.8644" lon="6.07757">
        <ele>1161.6</ele>
        <time>2026-08-07T14:00:32.387Z</time>
      </trkpt>
      <trkpt lat="44.8643" lon="6.07749">
        <ele>1159.8</ele>
        <time>2026-08-07T14:00:33.782Z</time>
      </trkpt>
      <trkpt lat="44.86417" lon="6.07747">
        <ele>1157.4</ele>
        <time>2026-08-07T14:00:35.369Z</time>
      </trkpt>
      <trkpt lat="44.86391" lon="6.07747">
        <ele>1152.6</ele>
        <time>2026-08-07T14:00:38.524Z</time>
      </trkpt>
      <trkpt lat="44.86375" lon="6.07747">
        <ele>1150.1</ele>
        <time>2026-08-07T14:00:40.466Z</time>
      </trkpt>
      <trkpt lat="44.8636" lon="6.07741">
        <ele>1148.2</ele>
        <time>2026-08-07T14:00:42.358Z</time>
      </trkpt>
      <trkpt lat="44.8635" lon="6.07732">
        <ele>1147.1</ele>
        <time>2026-08-07T14:00:43.797Z</time>
      </trkpt>
      <trkpt lat="44.86342" lon="6.0772">
        <ele>1145.6</ele>
        <time>2026-08-07T14:00:45.214Z</time>
      </trkpt>
      <trkpt lat="44.86331" lon="6.07696">
        <ele>1144.6</ele>
        <time>2026-08-07T14:00:47.961Z</time>
      </trkpt>
      <trkpt lat="44.86318" lon="6.07655">
        <ele>1145</ele>
        <time>2026-08-07T14:00:55.253Z</time>
      </trkpt>
      <trkpt lat="44.86302" lon="6.07611">
        <ele>1146</ele>
        <time>2026-08-07T14:01:04.798Z</time>
      </trkpt>
      <trkpt lat="44.86291" lon="6.07585">
        <ele>1145.5</ele>
        <time>2026-08-07T14:01:08.333Z</time>
      </trkpt>
      <trkpt lat="44.86277" lon="6.07558">
        <ele>1143.5</ele>
        <time>2026-08-07T14:01:11.210Z</time>
      </trkpt>
      <trkpt lat="44.86265" lon="6.0754">
        <ele>1141.9</ele>
        <time>2026-08-07T14:01:13.336Z</time>
      </trkpt>
      <trkpt lat="44.86234" lon="6.07494">
        <ele>1138</ele>
        <time>2026-08-07T14:01:18.795Z</time>
      </trkpt>
      <trkpt lat="44.86227" lon="6.0748">
        <ele>1136.7</ele>
        <time>2026-08-07T14:01:20.269Z</time>
      </trkpt>
      <trkpt lat="44.86222" lon="6.07467">
        <ele>1136.3</ele>
        <time>2026-08-07T14:01:21.808Z</time>
      </trkpt>
      <trkpt lat="44.86217" lon="6.07446">
        <ele>1136.2</ele>
        <time>2026-08-07T14:01:24.801Z</time>
      </trkpt>
      <trkpt lat="44.86216" lon="6.07414">
        <ele>1134.9</ele>
        <time>2026-08-07T14:01:27.723Z</time>
      </trkpt>
      <trkpt lat="44.86217" lon="6.07378">
        <ele>1134.2</ele>
        <time>2026-08-07T14:01:31.792Z</time>
      </trkpt>
      <trkpt lat="44.86214" lon="6.07347">
        <ele>1134.8</ele>
        <time>2026-08-07T14:01:37.731Z</time>
      </trkpt>
      <trkpt lat="44.8621" lon="6.07332">
        <ele>1134.2</ele>
        <time>2026-08-07T14:01:39.236Z</time>
      </trkpt>
      <trkpt lat="44.86183" lon="6.0726">
        <ele>1131.9</ele>
        <time>2026-08-07T14:01:47.609Z</time>
      </trkpt>
      <trkpt lat="44.86151" lon="6.07171">
        <ele>1126.3</ele>
        <time>2026-08-07T14:01:56.193Z</time>
      </trkpt>
      <trkpt lat="44.86133" lon="6.07119">
        <ele>1123.2</ele>
        <time>2026-08-07T14:02:01.170Z</time>
      </trkpt>
      <trkpt lat="44.86123" lon="6.07096">
        <ele>1122.3</ele>
        <time>2026-08-07T14:02:03.805Z</time>
      </trkpt>
      <trkpt lat="44.86101" lon="6.07061">
        <ele>1118.2</ele>
        <time>2026-08-07T14:02:07.829Z</time>
      </trkpt>
      <trkpt lat="44.86085" lon="6.07028">
        <ele>1115.7</ele>
        <time>2026-08-07T14:02:11.268Z</time>
      </trkpt>
      <trkpt lat="44.86078" lon="6.07007">
        <ele>1114.6</ele>
        <time>2026-08-07T14:02:13.264Z</time>
      </trkpt>
      <trkpt lat="44.86063" lon="6.06941">
        <ele>1112.5</ele>
        <time>2026-08-07T14:02:20.241Z</time>
      </trkpt>
      <trkpt lat="44.86037" lon="6.06812">
        <ele>1105.6</ele>
        <time>2026-08-07T14:02:31.777Z</time>
      </trkpt>
      <trkpt lat="44.86024" lon="6.0673">
        <ele>1104.6</ele>
        <time>2026-08-07T14:02:42.133Z</time>
      </trkpt>
      <trkpt lat="44.86013" lon="6.06653">
        <ele>1097.9</ele>
        <time>2026-08-07T14:02:48.890Z</time>
      </trkpt>
      <trkpt lat="44.86019" lon="6.06611">
        <ele>1095.1</ele>
        <time>2026-08-07T14:02:52.575Z</time>
      </trkpt>
      <trkpt lat="44.8603" lon="6.06571">
        <ele>1093.8</ele>
        <time>2026-08-07T14:02:56.894Z</time>
      </trkpt>
      <trkpt lat="44.86043" lon="6.06517">
        <ele>1093.1</ele>
        <time>2026-08-07T14:03:03.891Z</time>
      </trkpt>
      <trkpt lat="44.86053" lon="6.06483">
        <ele>1093.2</ele>
        <time>2026-08-07T14:03:09.367Z</time>
      </trkpt>
      <trkpt lat="44.86061" lon="6.06449">
        <ele>1093.6</ele>
        <time>2026-08-07T14:03:15.380Z</time>
      </trkpt>
      <trkpt lat="44.86065" lon="6.06429">
        <ele>1093.6</ele>
        <time>2026-08-07T14:03:18.359Z</time>
      </trkpt>
      <trkpt lat="44.86067" lon="6.06414">
        <ele>1093.7</ele>
        <time>2026-08-07T14:03:20.754Z</time>
      </trkpt>
      <trkpt lat="44.86069" lon="6.0639">
        <ele>1094</ele>
        <time>2026-08-07T14:03:24.887Z</time>
      </trkpt>
      <trkpt lat="44.86071" lon="6.06332">
        <ele>1091.2</ele>
        <time>2026-08-07T14:03:29.881Z</time>
      </trkpt>
      <trkpt lat="44.86073" lon="6.06268">
        <ele>1089</ele>
        <time>2026-08-07T14:03:36.078Z</time>
      </trkpt>
      <trkpt lat="44.86075" lon="6.06231">
        <ele>1087.4</ele>
        <time>2026-08-07T14:03:39.387Z</time>
      </trkpt>
      <trkpt lat="44.86076" lon="6.06211">
        <ele>1086.5</ele>
        <time>2026-08-07T14:03:41.147Z</time>
      </trkpt>
      <trkpt lat="44.86074" lon="6.06185">
        <ele>1084.9</ele>
        <time>2026-08-07T14:03:43.397Z</time>
      </trkpt>
      <trkpt lat="44.86069" lon="6.06144">
        <ele>1083</ele>
        <time>2026-08-07T14:03:47.025Z</time>
      </trkpt>
      <trkpt lat="44.86059" lon="6.06081">
        <ele>1080.4</ele>
        <time>2026-08-07T14:03:52.932Z</time>
      </trkpt>
      <trkpt lat="44.86048" lon="6.05994">
        <ele>1077.9</ele>
        <time>2026-08-07T14:04:02.011Z</time>
      </trkpt>
      <trkpt lat="44.86035" lon="6.05905">
        <ele>1075.8</ele>
        <time>2026-08-07T14:04:11.869Z</time>
      </trkpt>
      <trkpt lat="44.86019" lon="6.0579">
        <ele>1073.1</ele>
        <time>2026-08-07T14:04:24.592Z</time>
      </trkpt>
      <trkpt lat="44.86011" lon="6.05733">
        <ele>1071.6</ele>
        <time>2026-08-07T14:04:30.717Z</time>
      </trkpt>
      <trkpt lat="44.86007" lon="6.05712">
        <ele>1070.9</ele>
        <time>2026-08-07T14:04:32.865Z</time>
      </trkpt>
      <trkpt lat="44.86009" lon="6.05689">
        <ele>1070.3</ele>
        <time>2026-08-07T14:04:35.305Z</time>
      </trkpt>
      <trkpt lat="44.86009" lon="6.05647">
        <ele>1070.1</ele>
        <time>2026-08-07T14:04:40.962Z</time>
      </trkpt>
      <trkpt lat="44.86006" lon="6.05548">
        <ele>1068.8</ele>
        <time>2026-08-07T14:04:52.998Z</time>
      </trkpt>
      <trkpt lat="44.86006" lon="6.05475">
        <ele>1067.1</ele>
        <time>2026-08-07T14:05:00.903Z</time>
      </trkpt>
      <trkpt lat="44.8601" lon="6.05427">
        <ele>1066.1</ele>
        <time>2026-08-07T14:05:06.286Z</time>
      </trkpt>
      <trkpt lat="44.86015" lon="6.0537">
        <ele>1065</ele>
        <time>2026-08-07T14:05:12.794Z</time>
      </trkpt>
      <trkpt lat="44.86025" lon="6.05292">
        <ele>1063.1</ele>
        <time>2026-08-07T14:05:21.314Z</time>
      </trkpt>
      <trkpt lat="44.86026" lon="6.0527">
        <ele>1063</ele>
        <time>2026-08-07T14:05:24.291Z</time>
      </trkpt>
      <trkpt lat="44.86027" lon="6.05245">
        <ele>1062.8</ele>
        <time>2026-08-07T14:05:27.529Z</time>
      </trkpt>
      <trkpt lat="44.86026" lon="6.05201">
        <ele>1061.2</ele>
        <time>2026-08-07T14:05:31.706Z</time>
      </trkpt>
      <trkpt lat="44.86026" lon="6.05198">
        <ele>1061.1</ele>
        <time>2026-08-07T14:05:31.999Z</time>
      </trkpt>
      <trkpt lat="44.86025" lon="6.05179">
        <ele>1061</ele>
        <time>2026-08-07T14:05:34.549Z</time>
      </trkpt>
      <trkpt lat="44.86025" lon="6.05175">
        <ele>1061</ele>
        <time>2026-08-07T14:05:35.123Z</time>
      </trkpt>
      <trkpt lat="44.8601" lon="6.04867">
        <ele>1056.9</ele>
        <time>2026-08-07T14:06:12.553Z</time>
      </trkpt>
      <trkpt lat="44.86012" lon="6.04854">
        <ele>1056.7</ele>
        <time>2026-08-07T14:06:14.133Z</time>
      </trkpt>
      <trkpt lat="44.86014" lon="6.04839">
        <ele>1056.4</ele>
        <time>2026-08-07T14:06:15.853Z</time>
      </trkpt>
      <trkpt lat="44.86019" lon="6.04828">
        <ele>1056</ele>
        <time>2026-08-07T14:06:17.164Z</time>
      </trkpt>
      <trkpt lat="44.86028" lon="6.04807">
        <ele>1055</ele>
        <time>2026-08-07T14:06:19.399Z</time>
      </trkpt>
      <trkpt lat="44.86032" lon="6.048">
        <ele>1054.8</ele>
        <time>2026-08-07T14:06:20.384Z</time>
      </trkpt>
      <trkpt lat="44.86038" lon="6.04789">
        <ele>1054.4</ele>
        <time>2026-08-07T14:06:21.802Z</time>
      </trkpt>
      <trkpt lat="44.86053" lon="6.04765">
        <ele>1053.7</ele>
        <time>2026-08-07T14:06:25.320Z</time>
      </trkpt>
      <trkpt lat="44.86101" lon="6.0469">
        <ele>1054.4</ele>
        <time>2026-08-07T14:06:41.265Z</time>
      </trkpt>
      <trkpt lat="44.86111" lon="6.04676">
        <ele>1054</ele>
        <time>2026-08-07T14:06:43.493Z</time>
      </trkpt>
      <trkpt lat="44.86151" lon="6.04616">
        <ele>1050.3</ele>
        <time>2026-08-07T14:06:50.723Z</time>
      </trkpt>
      <trkpt lat="44.86196" lon="6.04571">
        <ele>1048</ele>
        <time>2026-08-07T14:06:58.615Z</time>
      </trkpt>
      <trkpt lat="44.86199" lon="6.04568">
        <ele>1048</ele>
        <time>2026-08-07T14:06:59.358Z</time>
      </trkpt>
      <trkpt lat="44.8622" lon="6.04548">
        <ele>1048</ele>
        <time>2026-08-07T14:07:04.483Z</time>
      </trkpt>
      <trkpt lat="44.86237" lon="6.04532">
        <ele>1047.5</ele>
        <time>2026-08-07T14:07:07.817Z</time>
      </trkpt>
      <trkpt lat="44.86277" lon="6.04494">
        <ele>1045</ele>
        <time>2026-08-07T14:07:14.248Z</time>
      </trkpt>
      <trkpt lat="44.86281" lon="6.0449">
        <ele>1045.1</ele>
        <time>2026-08-07T14:07:15.468Z</time>
      </trkpt>
      <trkpt lat="44.86303" lon="6.04469">
        <ele>1045</ele>
        <time>2026-08-07T14:07:20.653Z</time>
      </trkpt>
      <trkpt lat="44.86315" lon="6.04454">
        <ele>1045.4</ele>
        <time>2026-08-07T14:07:24.847Z</time>
      </trkpt>
      <trkpt lat="44.86348" lon="6.04393">
        <ele>1044.2</ele>
        <time>2026-08-07T14:07:33.897Z</time>
      </trkpt>
      <trkpt lat="44.8636" lon="6.04374">
        <ele>1043.5</ele>
        <time>2026-08-07T14:07:36.532Z</time>
      </trkpt>
      <trkpt lat="44.86371" lon="6.0436">
        <ele>1043</ele>
        <time>2026-08-07T14:07:38.780Z</time>
      </trkpt>
      <trkpt lat="44.86376" lon="6.04356">
        <ele>1043</ele>
        <time>2026-08-07T14:07:39.942Z</time>
      </trkpt>
      <trkpt lat="44.86387" lon="6.04347">
        <ele>1043</ele>
        <time>2026-08-07T14:07:42.514Z</time>
      </trkpt>
      <trkpt lat="44.86466" lon="6.04281">
        <ele>1042.1</ele>
        <time>2026-08-07T14:07:59.480Z</time>
      </trkpt>
      <trkpt lat="44.86482" lon="6.04267">
        <ele>1042</ele>
        <time>2026-08-07T14:08:03.103Z</time>
      </trkpt>
      <trkpt lat="44.8649" lon="6.04254">
        <ele>1041.2</ele>
        <time>2026-08-07T14:08:04.595Z</time>
      </trkpt>
      <trkpt lat="44.86499" lon="6.04238">
        <ele>1040.1</ele>
        <time>2026-08-07T14:08:06.351Z</time>
      </trkpt>
      <trkpt lat="44.86525" lon="6.04188">
        <ele>1040.4</ele>
        <time>2026-08-07T14:08:15.851Z</time>
      </trkpt>
      <trkpt lat="44.86553" lon="6.04133">
        <ele>1039.4</ele>
        <time>2026-08-07T14:08:23.918Z</time>
      </trkpt>
      <trkpt lat="44.86569" lon="6.04104">
        <ele>1039</ele>
        <time>2026-08-07T14:08:28.503Z</time>
      </trkpt>
      <trkpt lat="44.86583" lon="6.04084">
        <ele>1038</ele>
        <time>2026-08-07T14:08:31.190Z</time>
      </trkpt>
      <trkpt lat="44.86636" lon="6.04018">
        <ele>1038.6</ele>
        <time>2026-08-07T14:08:46.724Z</time>
      </trkpt>
      <trkpt lat="44.8669" lon="6.03961">
        <ele>1039.8</ele>
        <time>2026-08-07T14:09:03.041Z</time>
      </trkpt>
      <trkpt lat="44.86702" lon="6.03945">
        <ele>1039.5</ele>
        <time>2026-08-07T14:09:05.879Z</time>
      </trkpt>
      <trkpt lat="44.86711" lon="6.03929">
        <ele>1039.9</ele>
        <time>2026-08-07T14:09:09.781Z</time>
      </trkpt>
      <trkpt lat="44.86718" lon="6.03912">
        <ele>1038.5</ele>
        <time>2026-08-07T14:09:11.472Z</time>
      </trkpt>
      <trkpt lat="44.8673" lon="6.03878">
        <ele>1037.1</ele>
        <time>2026-08-07T14:09:15.058Z</time>
      </trkpt>
      <trkpt lat="44.86739" lon="6.03858">
        <ele>1037.4</ele>
        <time>2026-08-07T14:09:19.124Z</time>
      </trkpt>
      <trkpt lat="44.86751" lon="6.03838">
        <ele>1036.2</ele>
        <time>2026-08-07T14:09:21.406Z</time>
      </trkpt>
      <trkpt lat="44.86828" lon="6.03725">
        <ele>1035.4</ele>
        <time>2026-08-07T14:09:42.423Z</time>
      </trkpt>
      <trkpt lat="44.86845" lon="6.03695">
        <ele>1035.6</ele>
        <time>2026-08-07T14:09:48.337Z</time>
      </trkpt>
      <trkpt lat="44.86856" lon="6.03659">
        <ele>1034.4</ele>
        <time>2026-08-07T14:09:52.270Z</time>
      </trkpt>
      <trkpt lat="44.86857" lon="6.03657">
        <ele>1034.3</ele>
        <time>2026-08-07T14:09:52.493Z</time>
      </trkpt>
      <trkpt lat="44.8686" lon="6.03645">
        <ele>1033.5</ele>
        <time>2026-08-07T14:09:53.587Z</time>
      </trkpt>
      <trkpt lat="44.86862" lon="6.03638">
        <ele>1033.2</ele>
        <time>2026-08-07T14:09:54.281Z</time>
      </trkpt>
      <trkpt lat="44.86864" lon="6.03632">
        <ele>1033.4</ele>
        <time>2026-08-07T14:09:55.791Z</time>
      </trkpt>
      <trkpt lat="44.8688" lon="6.03577">
        <ele>1031.6</ele>
        <time>2026-08-07T14:10:01.776Z</time>
      </trkpt>
      <trkpt lat="44.86891" lon="6.03542">
        <ele>1030.7</ele>
        <time>2026-08-07T14:10:05.911Z</time>
      </trkpt>
      <trkpt lat="44.86901" lon="6.03526">
        <ele>1030.3</ele>
        <time>2026-08-07T14:10:08.338Z</time>
      </trkpt>
      <trkpt lat="44.86914" lon="6.03514">
        <ele>1030.3</ele>
        <time>2026-08-07T14:10:11.480Z</time>
      </trkpt>
      <trkpt lat="44.86925" lon="6.03509">
        <ele>1030.7</ele>
        <time>2026-08-07T14:10:14.857Z</time>
      </trkpt>
      <trkpt lat="44.8696" lon="6.03502">
        <ele>1031.2</ele>
        <time>2026-08-07T14:10:23.087Z</time>
      </trkpt>
      <trkpt lat="44.87009" lon="6.03492">
        <ele>1032</ele>
        <time>2026-08-07T14:10:34.861Z</time>
      </trkpt>
      <trkpt lat="44.87031" lon="6.03481">
        <ele>1032.6</ele>
        <time>2026-08-07T14:10:41.018Z</time>
      </trkpt>
      <trkpt lat="44.8705" lon="6.03468">
        <ele>1032.9</ele>
        <time>2026-08-07T14:10:45.937Z</time>
      </trkpt>
      <trkpt lat="44.87068" lon="6.03452">
        <ele>1033.6</ele>
        <time>2026-08-07T14:10:52.029Z</time>
      </trkpt>
      <trkpt lat="44.87083" lon="6.03435">
        <ele>1032.6</ele>
        <time>2026-08-07T14:10:54.593Z</time>
      </trkpt>
      <trkpt lat="44.87093" lon="6.03423">
        <ele>1032.4</ele>
        <time>2026-08-07T14:10:56.906Z</time>
      </trkpt>
      <trkpt lat="44.87099" lon="6.03411">
        <ele>1031.6</ele>
        <time>2026-08-07T14:10:58.169Z</time>
      </trkpt>
      <trkpt lat="44.87105" lon="6.03395">
        <ele>1030.1</ele>
        <time>2026-08-07T14:10:59.726Z</time>
      </trkpt>
      <trkpt lat="44.87113" lon="6.03363">
        <ele>1027.4</ele>
        <time>2026-08-07T14:11:02.644Z</time>
      </trkpt>
      <trkpt lat="44.87125" lon="6.03301">
        <ele>1028</ele>
        <time>2026-08-07T14:11:13.143Z</time>
      </trkpt>
      <trkpt lat="44.87127" lon="6.0329">
        <ele>1028.2</ele>
        <time>2026-08-07T14:11:15.246Z</time>
      </trkpt>
      <trkpt lat="44.87133" lon="6.03265">
        <ele>1028.1</ele>
        <time>2026-08-07T14:11:18.845Z</time>
      </trkpt>
      <trkpt lat="44.87137" lon="6.03243">
        <ele>1027.6</ele>
        <time>2026-08-07T14:11:21.337Z</time>
      </trkpt>
      <trkpt lat="44.87138" lon="6.03227">
        <ele>1027.1</ele>
        <time>2026-08-07T14:11:22.940Z</time>
      </trkpt>
      <trkpt lat="44.87142" lon="6.03172">
        <ele>1026.2</ele>
        <time>2026-08-07T14:11:29.411Z</time>
      </trkpt>
      <trkpt lat="44.87145" lon="6.0315">
        <ele>1026.5</ele>
        <time>2026-08-07T14:11:33.298Z</time>
      </trkpt>
      <trkpt lat="44.87151" lon="6.03132">
        <ele>1026.7</ele>
        <time>2026-08-07T14:11:36.582Z</time>
      </trkpt>
      <trkpt lat="44.87152" lon="6.03127">
        <ele>1026.7</ele>
        <time>2026-08-07T14:11:37.327Z</time>
      </trkpt>
      <trkpt lat="44.87153" lon="6.03094">
        <ele>1026.5</ele>
        <time>2026-08-07T14:11:41.702Z</time>
      </trkpt>
      <trkpt lat="44.87159" lon="6.0306">
        <ele>1027.2</ele>
        <time>2026-08-07T14:11:48.437Z</time>
      </trkpt>
      <trkpt lat="44.87164" lon="6.03012">
        <ele>1025.7</ele>
        <time>2026-08-07T14:11:53.289Z</time>
      </trkpt>
      <trkpt lat="44.87164" lon="6.03001">
        <ele>1025</ele>
        <time>2026-08-07T14:11:54.235Z</time>
      </trkpt>
      <trkpt lat="44.87172" lon="6.02912">
        <ele>1022.2</ele>
        <time>2026-08-07T14:12:03.181Z</time>
      </trkpt>
      <trkpt lat="44.87173" lon="6.02894">
        <ele>1021.7</ele>
        <time>2026-08-07T14:12:05.047Z</time>
      </trkpt>
      <trkpt lat="44.87176" lon="6.02864">
        <ele>1020.2</ele>
        <time>2026-08-07T14:12:07.652Z</time>
      </trkpt>
      <trkpt lat="44.87177" lon="6.0285">
        <ele>1019.5</ele>
        <time>2026-08-07T14:12:08.862Z</time>
      </trkpt>
      <trkpt lat="44.87177" lon="6.02842">
        <ele>1019.2</ele>
        <time>2026-08-07T14:12:09.613Z</time>
      </trkpt>
      <trkpt lat="44.87178" lon="6.02819">
        <ele>1018</ele>
        <time>2026-08-07T14:12:11.595Z</time>
      </trkpt>
      <trkpt lat="44.8718" lon="6.02813">
        <ele>1017.8</ele>
        <time>2026-08-07T14:12:12.263Z</time>
      </trkpt>
      <trkpt lat="44.87181" lon="6.02806">
        <ele>1017.6</ele>
        <time>2026-08-07T14:12:12.999Z</time>
      </trkpt>
      <trkpt lat="44.87184" lon="6.02799">
        <ele>1017.4</ele>
        <time>2026-08-07T14:12:13.873Z</time>
      </trkpt>
      <trkpt lat="44.87185" lon="6.02794">
        <ele>1017.1</ele>
        <time>2026-08-07T14:12:14.320Z</time>
      </trkpt>
      <trkpt lat="44.87191" lon="6.02785">
        <ele>1016.7</ele>
        <time>2026-08-07T14:12:15.538Z</time>
      </trkpt>
      <trkpt lat="44.87196" lon="6.02781">
        <ele>1016.4</ele>
        <time>2026-08-07T14:12:16.303Z</time>
      </trkpt>
      <trkpt lat="44.87202" lon="6.02776">
        <ele>1016.4</ele>
        <time>2026-08-07T14:12:17.712Z</time>
      </trkpt>
      <trkpt lat="44.87214" lon="6.02773">
        <ele>1017</ele>
        <time>2026-08-07T14:12:21.970Z</time>
      </trkpt>
      <trkpt lat="44.87223" lon="6.0277">
        <ele>1017.2</ele>
        <time>2026-08-07T14:12:24.302Z</time>
      </trkpt>
      <trkpt lat="44.87228" lon="6.02769">
        <ele>1017.5</ele>
        <time>2026-08-07T14:12:26.315Z</time>
      </trkpt>
      <trkpt lat="44.87231" lon="6.02769">
        <ele>1017.6</ele>
        <time>2026-08-07T14:12:27.179Z</time>
      </trkpt>
      <trkpt lat="44.87236" lon="6.02768">
        <ele>1017.7</ele>
        <time>2026-08-07T14:12:28.427Z</time>
      </trkpt>
      <trkpt lat="44.87246" lon="6.02764">
        <ele>1017.8</ele>
        <time>2026-08-07T14:12:30.737Z</time>
      </trkpt>
      <trkpt lat="44.87253" lon="6.02759">
        <ele>1017.7</ele>
        <time>2026-08-07T14:12:32.150Z</time>
      </trkpt>
      <trkpt lat="44.87259" lon="6.02753">
        <ele>1017.6</ele>
        <time>2026-08-07T14:12:33.464Z</time>
      </trkpt>
      <trkpt lat="44.87264" lon="6.02746">
        <ele>1017.6</ele>
        <time>2026-08-07T14:12:34.889Z</time>
      </trkpt>
      <trkpt lat="44.87268" lon="6.02736">
        <ele>1017.3</ele>
        <time>2026-08-07T14:12:36.095Z</time>
      </trkpt>
      <trkpt lat="44.87271" lon="6.02725">
        <ele>1017</ele>
        <time>2026-08-07T14:12:37.342Z</time>
      </trkpt>
      <trkpt lat="44.87273" lon="6.02718">
        <ele>1016.9</ele>
        <time>2026-08-07T14:12:38.257Z</time>
      </trkpt>
      <trkpt lat="44.87276" lon="6.02706">
        <ele>1016.6</ele>
        <time>2026-08-07T14:12:39.630Z</time>
      </trkpt>
      <trkpt lat="44.87279" lon="6.02695">
        <ele>1016.2</ele>
        <time>2026-08-07T14:12:40.774Z</time>
      </trkpt>
      <trkpt lat="44.87282" lon="6.02681">
        <ele>1014.4</ele>
        <time>2026-08-07T14:12:42.032Z</time>
      </trkpt>
      <trkpt lat="44.87285" lon="6.02675">
        <ele>1013.8</ele>
        <time>2026-08-07T14:12:42.664Z</time>
      </trkpt>
      <trkpt lat="44.8729" lon="6.02672">
        <ele>1013.7</ele>
        <time>2026-08-07T14:12:43.595Z</time>
      </trkpt>
      <trkpt lat="44.87296" lon="6.02672">
        <ele>1014.1</ele>
        <time>2026-08-07T14:12:46.231Z</time>
      </trkpt>
      <trkpt lat="44.87303" lon="6.02671">
        <ele>1014.6</ele>
        <time>2026-08-07T14:12:49.512Z</time>
      </trkpt>
      <trkpt lat="44.87312" lon="6.02675">
        <ele>1015.2</ele>
        <time>2026-08-07T14:12:53.489Z</time>
      </trkpt>
      <trkpt lat="44.87334" lon="6.02686">
        <ele>1017.5</ele>
        <time>2026-08-07T14:13:09.152Z</time>
      </trkpt>
      <trkpt lat="44.87349" lon="6.02691">
        <ele>1017.3</ele>
        <time>2026-08-07T14:13:11.922Z</time>
      </trkpt>
      <trkpt lat="44.87368" lon="6.02693">
        <ele>1014.7</ele>
        <time>2026-08-07T14:13:14.234Z</time>
      </trkpt>
      <trkpt lat="44.87377" lon="6.02694">
        <ele>1012.8</ele>
        <time>2026-08-07T14:13:15.329Z</time>
      </trkpt>
      <trkpt lat="44.87386" lon="6.02703">
        <ele>1012.1</ele>
        <time>2026-08-07T14:13:16.695Z</time>
      </trkpt>
      <trkpt lat="44.87393" lon="6.02719">
        <ele>1012.4</ele>
        <time>2026-08-07T14:13:20.087Z</time>
      </trkpt>
      <trkpt lat="44.87397" lon="6.02753">
        <ele>1013</ele>
        <time>2026-08-07T14:13:26.449Z</time>
      </trkpt>
      <trkpt lat="44.87399" lon="6.02773">
        <ele>1013.4</ele>
        <time>2026-08-07T14:13:30.321Z</time>
      </trkpt>
      <trkpt lat="44.87402" lon="6.02781">
        <ele>1012.9</ele>
        <time>2026-08-07T14:13:31.099Z</time>
      </trkpt>
      <trkpt lat="44.87425" lon="6.02799">
        <ele>1013.7</ele>
        <time>2026-08-07T14:13:38.417Z</time>
      </trkpt>
      <trkpt lat="44.87432" lon="6.02799">
        <ele>1014.9</ele>
        <time>2026-08-07T14:13:44.484Z</time>
      </trkpt>
      <trkpt lat="44.87437" lon="6.02796">
        <ele>1015</ele>
        <time>2026-08-07T14:13:45.808Z</time>
      </trkpt>
      <trkpt lat="44.87445" lon="6.02784">
        <ele>1012.9</ele>
        <time>2026-08-07T14:13:47.225Z</time>
      </trkpt>
      <trkpt lat="44.87463" lon="6.02759">
        <ele>1013.3</ele>
        <time>2026-08-07T14:13:53.210Z</time>
      </trkpt>
      <trkpt lat="44.87493" lon="6.02711">
        <ele>1009.8</ele>
        <time>2026-08-07T14:13:58.714Z</time>
      </trkpt>
      <trkpt lat="44.87514" lon="6.02683">
        <ele>1007.9</ele>
        <time>2026-08-07T14:14:02.240Z</time>
      </trkpt>
      <trkpt lat="44.8752" lon="6.02676">
        <ele>1007.7</ele>
        <time>2026-08-07T14:14:03.498Z</time>
      </trkpt>
      <trkpt lat="44.87526" lon="6.02667">
        <ele>1007.5</ele>
        <time>2026-08-07T14:14:04.946Z</time>
      </trkpt>
      <trkpt lat="44.87531" lon="6.02656">
        <ele>1007</ele>
        <time>2026-08-07T14:14:06.163Z</time>
      </trkpt>
      <trkpt lat="44.8754" lon="6.02632">
        <ele>1005</ele>
        <time>2026-08-07T14:14:08.498Z</time>
      </trkpt>
      <trkpt lat="44.87547" lon="6.0262">
        <ele>1004.3</ele>
        <time>2026-08-07T14:14:09.861Z</time>
      </trkpt>
      <trkpt lat="44.87555" lon="6.02612">
        <ele>1004.2</ele>
        <time>2026-08-07T14:14:11.666Z</time>
      </trkpt>
      <trkpt lat="44.87565" lon="6.0261">
        <ele>1003.3</ele>
        <time>2026-08-07T14:14:12.892Z</time>
      </trkpt>
      <trkpt lat="44.87586" lon="6.02611">
        <ele>1003</ele>
        <time>2026-08-07T14:14:16.625Z</time>
      </trkpt>
      <trkpt lat="44.87595" lon="6.02611">
        <ele>1003</ele>
        <time>2026-08-07T14:14:18.445Z</time>
      </trkpt>
      <trkpt lat="44.87601" lon="6.02611">
        <ele>1002.9</ele>
        <time>2026-08-07T14:14:19.490Z</time>
      </trkpt>
      <trkpt lat="44.87608" lon="6.02604">
        <ele>1001.5</ele>
        <time>2026-08-07T14:14:20.531Z</time>
      </trkpt>
      <trkpt lat="44.87615" lon="6.02594">
        <ele>1000.1</ele>
        <time>2026-08-07T14:14:21.740Z</time>
      </trkpt>
      <trkpt lat="44.87623" lon="6.02578">
        <ele>997.5</ele>
        <time>2026-08-07T14:14:23.424Z</time>
      </trkpt>
      <trkpt lat="44.87632" lon="6.02569">
        <ele>996.4</ele>
        <time>2026-08-07T14:14:24.762Z</time>
      </trkpt>
      <trkpt lat="44.87643" lon="6.02563">
        <ele>996.6</ele>
        <time>2026-08-07T14:14:27.590Z</time>
      </trkpt>
      <trkpt lat="44.87658" lon="6.02558">
        <ele>998</ele>
        <time>2026-08-07T14:14:36.974Z</time>
      </trkpt>
      <trkpt lat="44.87681" lon="6.02547">
        <ele>999.4</ele>
        <time>2026-08-07T14:14:46.434Z</time>
      </trkpt>
      <trkpt lat="44.87686" lon="6.02542">
        <ele>999.1</ele>
        <time>2026-08-07T14:14:47.268Z</time>
      </trkpt>
      <trkpt lat="44.87695" lon="6.02531">
        <ele>997.8</ele>
        <time>2026-08-07T14:14:48.712Z</time>
      </trkpt>
      <trkpt lat="44.87698" lon="6.02526">
        <ele>997.3</ele>
        <time>2026-08-07T14:14:49.276Z</time>
      </trkpt>
      <trkpt lat="44.87708" lon="6.02507">
        <ele>995.2</ele>
        <time>2026-08-07T14:14:51.311Z</time>
      </trkpt>
      <trkpt lat="44.87731" lon="6.02466">
        <ele>993</ele>
        <time>2026-08-07T14:14:56.016Z</time>
      </trkpt>
      <trkpt lat="44.87753" lon="6.02423">
        <ele>992.6</ele>
        <time>2026-08-07T14:15:02.910Z</time>
      </trkpt>
      <trkpt lat="44.87754" lon="6.0242">
        <ele>992.6</ele>
        <time>2026-08-07T14:15:03.385Z</time>
      </trkpt>
      <trkpt lat="44.87761" lon="6.02405">
        <ele>992.7</ele>
        <time>2026-08-07T14:15:06.164Z</time>
      </trkpt>
      <trkpt lat="44.87787" lon="6.02314">
        <ele>989</ele>
        <time>2026-08-07T14:15:15.352Z</time>
      </trkpt>
      <trkpt lat="44.8779" lon="6.02297">
        <ele>987.6</ele>
        <time>2026-08-07T14:15:16.858Z</time>
      </trkpt>
      <trkpt lat="44.87792" lon="6.02266">
        <ele>984.4</ele>
        <time>2026-08-07T14:15:19.535Z</time>
      </trkpt>
      <trkpt lat="44.87796" lon="6.02242">
        <ele>982.5</ele>
        <time>2026-08-07T14:15:21.655Z</time>
      </trkpt>
      <trkpt lat="44.87807" lon="6.02206">
        <ele>981.2</ele>
        <time>2026-08-07T14:15:25.489Z</time>
      </trkpt>
      <trkpt lat="44.87827" lon="6.02152">
        <ele>979.6</ele>
        <time>2026-08-07T14:15:31.879Z</time>
      </trkpt>
      <trkpt lat="44.87845" lon="6.02117">
        <ele>978.7</ele>
        <time>2026-08-07T14:15:36.688Z</time>
      </trkpt>
      <trkpt lat="44.87856" lon="6.02086">
        <ele>976.2</ele>
        <time>2026-08-07T14:15:39.669Z</time>
      </trkpt>
      <trkpt lat="44.87871" lon="6.02064">
        <ele>975.6</ele>
        <time>2026-08-07T14:15:43.108Z</time>
      </trkpt>
      <trkpt lat="44.87892" lon="6.02032">
        <ele>974.9</ele>
        <time>2026-08-07T14:15:48.225Z</time>
      </trkpt>
      <trkpt lat="44.87912" lon="6.02002">
        <ele>973.6</ele>
        <time>2026-08-07T14:15:52.318Z</time>
      </trkpt>
      <trkpt lat="44.87925" lon="6.01978">
        <ele>972.1</ele>
        <time>2026-08-07T14:15:54.915Z</time>
      </trkpt>
      <trkpt lat="44.87941" lon="6.0195">
        <ele>971.4</ele>
        <time>2026-08-07T14:15:58.976Z</time>
      </trkpt>
      <trkpt lat="44.87958" lon="6.01923">
        <ele>970.7</ele>
        <time>2026-08-07T14:16:03.056Z</time>
      </trkpt>
      <trkpt lat="44.87999" lon="6.01861">
        <ele>970.8</ele>
        <time>2026-08-07T14:16:15.405Z</time>
      </trkpt>
      <trkpt lat="44.88016" lon="6.01833">
        <ele>970.8</ele>
        <time>2026-08-07T14:16:20.689Z</time>
      </trkpt>
      <trkpt lat="44.88046" lon="6.01779">
        <ele>968.7</ele>
        <time>2026-08-07T14:16:27.572Z</time>
      </trkpt>
      <trkpt lat="44.88055" lon="6.01761">
        <ele>969.4</ele>
        <time>2026-08-07T14:16:32.733Z</time>
      </trkpt>
      <trkpt lat="44.88066" lon="6.01742">
        <ele>969.8</ele>
        <time>2026-08-07T14:16:37.184Z</time>
      </trkpt>
      <trkpt lat="44.88073" lon="6.01728">
        <ele>970.1</ele>
        <time>2026-08-07T14:16:40.351Z</time>
      </trkpt>
      <trkpt lat="44.88078" lon="6.01718">
        <ele>970.3</ele>
        <time>2026-08-07T14:16:42.573Z</time>
      </trkpt>
      <trkpt lat="44.88092" lon="6.01693">
        <ele>970.6</ele>
        <time>2026-08-07T14:16:47.783Z</time>
      </trkpt>
      <trkpt lat="44.88103" lon="6.01678">
        <ele>971</ele>
        <time>2026-08-07T14:16:51.838Z</time>
      </trkpt>
      <trkpt lat="44.88108" lon="6.0167">
        <ele>971</ele>
        <time>2026-08-07T14:16:53.367Z</time>
      </trkpt>
      <trkpt lat="44.88114" lon="6.01661">
        <ele>971.1</ele>
        <time>2026-08-07T14:16:55.349Z</time>
      </trkpt>
      <trkpt lat="44.88125" lon="6.01644">
        <ele>971.3</ele>
        <time>2026-08-07T14:16:59.074Z</time>
        <extensions>
          <visugpx:TrkExtension xmlns:visugpx="https://www.visugpx.com/editgpx/">
            <visugpx:node>4</visugpx:node>
            </visugpx:TrkExtension>
        </extensions>
      </trkpt>
    </trkseg>
  </trk>
</gpx>